Data for 12/16/2008

Time Sea-Level Adjusted Pressure Absolute Pressure Temperature Relative Humidity Dew Point Precipitation   
(mb) (inHg) (mb) (inHg) (C) (F) (%) (C) (F) (mm) (in)
00:01 1016 30 845 24.95 -27.2 -17 75 -30.4 -22.6 0
00:02 1016 30 845 24.95 -27.3 -17.1 76 -30.3 -22.5 0
00:03 1016 30 845 24.95 -27.3 -17.1 76 -30.3 -22.5 0
00:04 1016 30 845 24.95 -27.4 -17.4 73 -30.9 -23.6 0
00:05 1016 30 845 24.95 -27.7 -17.8 72 -31.2 -24.2 0
00:06 1016 30 845 24.95 -27.9 -18.1 73 -31.3 -24.4 0
00:07 1016 30 845 24.95 -28 -18.4 74 -31.3 -24.4 0
00:08 1016 30 845 24.95 -28 -18.3 75 -31.1 -23.9 0
00:09 1016 30 845 24.95 -28.1 -18.7 71 -31.8 -25.3 0
00:10 1016 30 845 24.95 -28.6 -19.4 70 -32.5 -26.4 0
00:11 1016 30 845 24.95 -28.8 -19.8 70 -32.6 -26.7 0
00:12 1016 30 845 24.95 -29 -20.2 71 -32.8 -27 0
00:13 1016 30 845 24.95 -29.2 -20.5 73 -32.6 -26.7 0
00:14 1016 30 845 24.95 -29.1 -20.4 76 -32.1 -25.8 0
00:15 1016 30 845 24.95 -29.1 -20.3 76 -32.1 -25.8 0
00:16 1016 30 845 24.95 -29 -20.3 76 -32 -25.6 0
00:17 1016 30 845 24.95 -29.1 -20.4 75 -32.3 -26.1 0
00:18 1016 30 845 24.95 -29.1 -20.3 76 -32 -25.7 0
00:19 1016 30 845 24.95 -29.1 -20.4 73 -32.5 -26.5 0
00:20 1016 30 845 24.95 -29.1 -20.4 77 -32 -25.6 0
00:21 1016 30 845 24.95 -29 -20.1 76 -31.9 -25.4 0
00:22 1016 30 845 24.95 -29 -20.1 75 -32.2 -25.9 0
00:23 1016 30 845 24.95 -29.1 -20.3 73 -32.5 -26.5 0
00:24 1016 30 845 24.95 -29.2 -20.6 72 -32.7 -26.9 0
00:25 1016 30 845 24.95 -29.4 -20.8 72 -32.8 -27.1 0
00:26 1016 30 845 24.95 -29.4 -21 73 -32.9 -27.2 0
00:27 1016 30 845 24.95 -29.5 -21.1 73 -32.9 -27.3 0
00:28 1016 30 845 24.95 -29.6 -21.2 73 -32.9 -27.3 0
00:29 1016 30 845 24.95 -29.6 -21.2 73 -33 -27.3 0
00:30 1016 30 845 24.95 -29.6 -21.3 73 -33 -27.4 0
00:31 1016 30 845 24.95 -29.6 -21.3 73 -33 -27.4 0
00:32 1016 30 845 24.95 -29.7 -21.4 73 -33.1 -27.6 0
00:33 1016 30 845 24.95 -29.7 -21.5 73 -33.1 -27.6 0
00:34 1016 30 845 24.95 -29.7 -21.5 73 -33.1 -27.6 0
00:35 1016 30 845 24.95 -29.7 -21.5 73 -33.1 -27.5 0
00:36 1016 30 845 24.95 -29.7 -21.5 74 -33 -27.5 0
00:37 1016 30 845 24.95 -29.7 -21.4 74 -32.9 -27.2 0
00:38 1016 30 845 24.95 -29.7 -21.4 74 -32.9 -27.2 0
00:39 1016 30 845 24.95 -29.6 -21.3 74 -32.8 -27.1 0
00:40 1016 30 845 24.95 -29.5 -21.2 75 -32.7 -26.8 0
00:41 1016 30 845 24.95 -29.5 -21.1 75 -32.7 -26.8 0
00:42 1016 30 845 24.95 -29.4 -21 74 -32.7 -26.8 0
00:43 1015 29.97 845 24.95 -29.4 -21 74 -32.8 -27 0
00:44 1015 29.97 845 24.95 -29.5 -21.1 73 -32.9 -27.2 0
00:45 1015 29.97 845 24.95 -29.6 -21.2 73 -32.9 -27.2 0
00:46 1015 29.97 845 24.95 -29.6 -21.2 73 -32.9 -27.2 0
00:47 1015 29.97 845 24.95 -29.6 -21.2 74 -32.9 -27.2 0
00:48 1015 29.97 845 24.95 -29.6 -21.2 74 -32.9 -27.1 0
00:49 1015 29.97 845 24.95 -29.5 -21.2 74 -32.8 -27 0
00:50 1015 29.97 845 24.95 -29.5 -21.1 73 -32.8 -27.1 0
00:51 1015 29.97 845 24.95 -29.7 -21.4 71 -33.4 -28.1 0
00:52 1015 29.97 845 24.95 -29.8 -21.7 72 -33.4 -28.1 0
00:53 1015 29.97 845 24.95 -29.9 -21.8 74 -33.1 -27.6 0
00:54 1015 29.97 845 24.95 -29.8 -21.6 76 -32.8 -27 0
00:55 1015 29.97 845 24.95 -29.6 -21.3 77 -32.5 -26.5 0
00:56 1015 29.97 845 24.95 -29.4 -20.9 77 -32.3 -26.1 0
00:57 1015 29.97 844 24.92 -29.3 -20.7 76 -32.3 -26.1 0
00:58 1015 29.97 844 24.92 -29.2 -20.5 77 -32 -25.5 0
00:59 1015 29.97 844 24.92 -29 -20.1 77 -31.7 -25.1 0
01:00 1015 29.97 844 24.92 -28.8 -19.9 77 -31.6 -25 0
01:01 1015 29.97 844 24.92 -28.7 -19.6 77 -31.5 -24.8 0
01:02 1015 29.97 844 24.92 -28.6 -19.6 76 -31.6 -24.9 0
01:03 1015 29.97 844 24.92 -28.6 -19.5 77 -31.5 -24.7 0
01:04 1015 29.97 844 24.92 -28.5 -19.3 78 -31.3 -24.3 0
01:05 1015 29.97 844 24.92 -28.4 -19.2 77 -31.3 -24.4 0
01:06 1015 29.97 844 24.92 -28.5 -19.2 76 -31.4 -24.6 0
01:07 1015 29.97 844 24.92 -28.4 -19.2 77 -31.3 -24.4 0
01:08 1015 29.97 844 24.92 -28.5 -19.2 75 -31.6 -24.8 0
01:09 1015 29.97 844 24.92 -28.5 -19.3 76 -31.5 -24.7 0
01:10 1015 29.97 844 24.92 -28.5 -19.3 75 -31.6 -24.9 0
01:11 1015 29.97 844 24.92 -28.6 -19.4 75 -31.7 -25 0
01:12 1015 29.97 844 24.92 -28.5 -19.4 77 -31.4 -24.6 0
01:13 1015 29.97 844 24.92 -28.6 -19.4 75 -31.7 -25 0
01:14 1015 29.97 844 24.92 -28.7 -19.6 74 -31.9 -25.5 0
01:15 1015 29.97 844 24.92 -28.8 -19.9 73 -32.2 -25.9 0
01:16 1015 29.97 844 24.92 -29.1 -20.4 72 -32.7 -26.9 0
01:17 1015 29.97 844 24.92 -29.3 -20.8 74 -32.7 -26.8 0
01:18 1015 29.97 844 24.92 -29.6 -21.2 71 -33.2 -27.8 0
01:19 1015 29.97 844 24.92 -29.9 -21.9 70 -33.7 -28.7 0
01:20 1015 29.97 844 24.92 -30.2 -22.3 72 -33.7 -28.7 0
01:21 1015 29.97 844 24.92 -30.2 -22.3 75 -33.4 -28 0
01:22 1015 29.97 844 24.92 -30 -22.1 76 -33 -27.4 0
01:23 1015 29.97 844 24.92 -29.9 -21.8 76 -32.9 -27.2 0
01:24 1015 29.97 844 24.92 -29.9 -21.8 74 -33.1 -27.6 0
01:25 1015 29.97 844 24.92 -29.9 -21.9 74 -33.2 -27.8 0
01:26 1015 29.97 844 24.92 -30 -22 73 -33.4 -28.1 0
01:27 1015 29.97 844 24.92 -30.2 -22.3 73 -33.6 -28.4 0
01:28 1015 29.97 844 24.92 -30.1 -22.3 75 -33.3 -27.9 0
01:29 1015 29.97 844 24.92 -30 -22 76 -32.9 -27.3 0
01:30 1015 29.97 844 24.92 -29.9 -21.7 77 -32.7 -26.8 0
01:31 1015 29.97 844 24.92 -29.7 -21.4 76 -32.6 -26.7 0
01:32 1015 29.97 844 24.92 -29.8 -21.7 71 -33.4 -28.2 0
01:33 1015 29.97 844 24.92 -30.3 -22.5 69 -34.3 -29.8 0
01:34 1015 29.97 844 24.92 -30.8 -23.4 70 -34.6 -30.3 0
01:35 1015 29.97 844 24.92 -30.9 -23.5 73 -34.3 -29.7 0
01:36 1015 29.97 844 24.92 -30.9 -23.6 73 -34.3 -29.7 0
01:37 1015 29.97 844 24.92 -30.9 -23.6 74 -34.2 -29.5 0
01:38 1015 29.97 844 24.92 -30.9 -23.6 73 -34.2 -29.6 0
01:39 1015 29.97 844 24.92 -31 -23.8 72 -34.5 -30.2 0
01:40 1015 29.97 844 24.92 -31.2 -24.1 72 -34.7 -30.4 0
01:41 1015 29.97 844 24.92 -31.2 -24.2 72 -34.7 -30.5 0
01:42 1015 29.97 844 24.92 -31.2 -24.2 75 -34.2 -29.6 0
01:43 1015 29.97 844 24.92 -30.9 -23.6 77 -33.7 -28.7 0
01:44 1015 29.97 844 24.92 -30.6 -23 78 -33.3 -28 0
01:45 1015 29.97 844 24.92 -30.3 -22.5 77 -33.1 -27.5 0
01:46 1015 29.97 844 24.92 -30.1 -22.2 76 -33 -27.5 0
01:47 1015 29.97 844 24.92 -30.1 -22.1 75 -33.2 -27.8 0
01:48 1015 29.97 844 24.92 -30 -22 75 -33.1 -27.6 0
01:49 1015 29.97 844 24.92 -30 -21.9 74 -33.2 -27.7 0
01:50 1015 29.97 844 24.92 -30.1 -22.2 73 -33.5 -28.3 0
01:51 1015 29.97 844 24.92 -30.3 -22.5 72 -33.8 -28.8 0
01:52 1015 29.97 844 24.92 -30.4 -22.7 73 -33.8 -28.8 0
01:53 1015 29.97 844 24.92 -30.4 -22.7 73 -33.7 -28.7 0
01:54 1015 29.97 844 24.92 -30.4 -22.8 74 -33.7 -28.6 0
01:55 1015 29.97 844 24.92 -30.4 -22.7 74 -33.7 -28.6 0
01:56 1015 29.97 844 24.92 -30.4 -22.8 73 -33.7 -28.7 0
01:57 1015 29.97 844 24.92 -30.4 -22.8 73 -33.7 -28.7 0
01:58 1015 29.97 844 24.92 -30.5 -22.8 73 -33.8 -28.8 0
01:59 1015 29.97 844 24.92 -30.4 -22.8 74 -33.7 -28.6 0
02:00 1015 29.97 844 24.92 -30.4 -22.7 74 -33.6 -28.6 0
02:01 1015 29.97 844 24.92 -30.4 -22.6 74 -33.6 -28.4 0
02:02 1015 29.97 844 24.92 -30.3 -22.6 74 -33.5 -28.3 0
02:03 1015 29.97 844 24.92 -30.3 -22.5 74 -33.5 -28.2 0
02:04 1015 29.97 844 24.92 -30.2 -22.4 74 -33.5 -28.2 0
02:05 1015 29.97 844 24.92 -30.2 -22.4 73 -33.5 -28.4 0
02:06 1015 29.97 844 24.92 -30.3 -22.5 73 -33.7 -28.7 0
02:07 1015 29.97 844 24.92 -30.4 -22.7 72 -33.9 -29.1 0
02:08 1015 29.97 844 24.92 -30.6 -23 71 -34.2 -29.6 0
02:09 1015 29.97 844 24.92 -30.7 -23.3 72 -34.3 -29.7 0
02:10 1015 29.97 844 24.92 -30.8 -23.4 72 -34.2 -29.6 0
02:11 1015 29.97 844 24.92 -30.8 -23.4 73 -34.2 -29.5 0
02:12 1015 29.97 844 24.92 -30.7 -23.3 74 -33.9 -29 0
02:13 1015 29.97 844 24.92 -30.7 -23.2 74 -33.8 -28.9 0
02:14 1015 29.97 844 24.92 -30.6 -23.1 74 -33.8 -28.9 0
02:15 1015 29.97 844 24.92 -30.5 -23 74 -33.8 -28.9 0
02:16 1015 29.97 844 24.92 -30.6 -23 73 -33.9 -29 0
02:17 1015 29.97 844 24.92 -30.5 -23 73 -33.9 -28.9 0
02:18 1015 29.97 844 24.92 -30.6 -23.1 73 -34 -29.1 0
02:19 1015 29.97 844 24.92 -30.6 -23.1 73 -34 -29.1 0
02:20 1015 29.97 844 24.92 -30.6 -23.1 73 -34 -29.2 0
02:21 1015 29.97 844 24.92 -30.7 -23.3 72 -34.2 -29.6 0
02:22 1015 29.97 844 24.92 -30.8 -23.5 71 -34.5 -30 0
02:23 1015 29.97 844 24.92 -31 -23.8 72 -34.5 -30.2 0
02:24 1015 29.97 844 24.92 -31.1 -24 72 -34.7 -30.4 0
02:25 1015 29.97 844 24.92 -31.2 -24.1 72 -34.7 -30.4 0
02:26 1015 29.97 844 24.92 -31.2 -24.1 73 -34.6 -30.3 0
02:27 1015 29.97 844 24.92 -31.1 -24 74 -34.3 -29.8 0
02:28 1015 29.97 844 24.92 -31 -23.8 74 -34.1 -29.5 0
02:29 1015 29.97 844 24.92 -30.9 -23.6 74 -34.2 -29.5 0
02:30 1015 29.97 844 24.92 -30.9 -23.6 73 -34.2 -29.6 0
02:31 1015 29.97 844 24.92 -30.9 -23.7 73 -34.3 -29.8 0
02:32 1015 29.97 844 24.92 -31 -23.8 72 -34.5 -30.1 0
02:33 1015 29.97 844 24.92 -31.1 -24 73 -34.5 -30.1 0
02:34 1015 29.97 844 24.92 -31.1 -24 74 -34.4 -29.9 0
02:35 1015 29.97 844 24.92 -31.1 -23.9 74 -34.3 -29.8 0
02:36 1015 29.97 844 24.92 -30.9 -23.6 74 -34.1 -29.4 0
02:37 1015 29.97 844 24.92 -30.9 -23.7 74 -34.2 -29.5 0
02:38 1015 29.97 844 24.92 -30.9 -23.6 74 -34.2 -29.5 0
02:39 1015 29.97 844 24.92 -30.9 -23.7 73 -34.3 -29.7 0
02:40 1015 29.97 844 24.92 -30.9 -23.5 74 -34 -29.2 0
02:41 1015 29.97 844 24.92 -30.8 -23.5 74 -34.1 -29.4 0
02:42 1015 29.97 844 24.92 -30.9 -23.5 74 -34.1 -29.4 0
02:43 1015 29.97 844 24.92 -30.7 -23.3 76 -33.7 -28.7 0
02:44 1014 29.94 844 24.92 -30.5 -22.9 75 -33.6 -28.5 0
02:45 1015 29.97 844 24.92 -30.5 -23 73 -33.9 -29 0
02:46 1015 29.97 844 24.92 -30.7 -23.3 72 -34.3 -29.7 0
02:47 1014 29.94 844 24.92 -31 -23.7 71 -34.7 -30.4 0
02:48 1014 29.94 844 24.92 -31.3 -24.3 70 -35.1 -31.1 0
02:49 1014 29.94 844 24.92 -31.4 -24.6 71 -35 -31 0
02:50 1014 29.94 844 24.92 -31.4 -24.6 73 -34.8 -30.7 0
02:51 1014 29.94 844 24.92 -31.3 -24.4 74 -34.5 -30.1 0
02:52 1014 29.94 844 24.92 -31.2 -24.1 75 -34.2 -29.6 0
02:53 1014 29.94 844 24.92 -31 -23.8 75 -34.1 -29.3 0
02:54 1014 29.94 844 24.92 -30.9 -23.6 75 -34 -29.2 0
02:55 1014 29.94 844 24.92 -30.8 -23.4 74 -34 -29.2 0
02:56 1014 29.94 844 24.92 -30.8 -23.4 74 -34.1 -29.3 0
02:57 1014 29.94 844 24.92 -30.9 -23.5 73 -34.2 -29.6 0
02:58 1014 29.94 844 24.92 -31 -23.7 72 -34.4 -29.9 0
02:59 1014 29.94 844 24.92 -31 -23.7 74 -34.2 -29.6 0
03:00 1014 29.94 844 24.92 -30.9 -23.6 74 -34.1 -29.4 0
03:01 1014 29.94 844 24.92 -31 -23.7 72 -34.5 -30.2 0
03:02 1014 29.94 844 24.92 -31.2 -24.2 70 -35 -31 0
03:03 1014 29.94 844 24.92 -31.4 -24.5 71 -35.1 -31.1 0
03:04 1014 29.94 844 24.92 -31.6 -24.8 71 -35.3 -31.5 0
03:05 1014 29.94 844 24.92 -31.7 -25 72 -35.2 -31.4 0
03:06 1014 29.94 844 24.92 -31.6 -25 73 -34.9 -30.9 0
03:07 1014 29.94 844 24.92 -31.5 -24.7 75 -34.6 -30.2 0
03:08 1014 29.94 844 24.92 -31.3 -24.3 76 -34.2 -29.6 0
03:09 1014 29.94 844 24.92 -30.9 -23.6 78 -33.5 -28.3 0
03:10 1014 29.94 844 24.92 -30.5 -22.9 78 -33.1 -27.6 0
03:11 1014 29.94 843 24.89 -30.2 -22.4 76 -33.2 -27.7 0
03:12 1014 29.94 843 24.89 -30.4 -22.8 71 -34.1 -29.4 0
03:13 1014 29.94 843 24.89 -30.6 -23 73 -34 -29.1 0
03:14 1014 29.94 843 24.89 -30.7 -23.3 72 -34.2 -29.6 0
03:15 1014 29.94 843 24.89 -30.8 -23.5 72 -34.4 -29.9 0
03:16 1014 29.94 843 24.89 -31.1 -23.9 71 -34.7 -30.5 0
03:17 1014 29.94 843 24.89 -31.3 -24.4 71 -35 -31 0
03:18 1014 29.94 843 24.89 -31.4 -24.5 73 -34.7 -30.5 0
03:19 1014 29.94 843 24.89 -31.2 -24.1 76 -34.1 -29.4 0
03:20 1014 29.94 843 24.89 -31 -23.8 76 -34 -29.2 0
03:21 1014 29.94 843 24.89 -30.8 -23.5 76 -33.7 -28.7 0
03:22 1014 29.94 843 24.89 -30.6 -23.1 76 -33.6 -28.4 0
03:23 1014 29.94 843 24.89 -30.5 -22.9 75 -33.6 -28.5 0
03:24 1014 29.94 843 24.89 -30.7 -23.2 72 -34.1 -29.4 0
03:25 1014 29.94 843 24.89 -30.9 -23.6 70 -34.7 -30.4 0
03:26 1014 29.94 843 24.89 -31.2 -24.1 71 -34.9 -30.8 0
03:27 1014 29.94 843 24.89 -31.4 -24.6 71 -35.1 -31.2 0
03:28 1014 29.94 843 24.89 -31.6 -24.8 71 -35.2 -31.4 0
03:29 1014 29.94 843 24.89 -31.7 -25.1 72 -35.2 -31.4 0
03:30 1014 29.94 843 24.89 -31.7 -25.1 72 -35.2 -31.3 0
03:31 1014 29.94 843 24.89 -31.7 -25 73 -35 -31 0
03:32 1014 29.94 843 24.89 -31.6 -24.9 74 -34.9 -30.8 0
03:33 1014 29.94 843 24.89 -31.7 -25 72 -35.1 -31.2 0
03:34 1014 29.94 843 24.89 -31.8 -25.2 71 -35.3 -31.6 0
03:35 1014 29.94 843 24.89 -31.8 -25.2 73 -35.2 -31.3 0
03:36 1014 29.94 843 24.89 -31.8 -25.2 73 -35.1 -31.2 0
03:37 1014 29.94 843 24.89 -31.7 -25 74 -34.9 -30.8 0
03:38 1014 29.94 843 24.89 -31.5 -24.7 76 -34.4 -30 0
03:39 1014 29.94 843 24.89 -31.2 -24.1 77 -33.9 -29.1 0
03:40 1014 29.94 843 24.89 -30.8 -23.4 78 -33.4 -28.1 0
03:41 1014 29.94 843 24.89 -30.5 -22.9 77 -33.4 -28.1 0
03:42 1014 29.94 843 24.89 -30.5 -22.9 74 -33.8 -28.8 0
03:43 1014 29.94 843 24.89 -30.7 -23.2 72 -34.2 -29.5 0
03:44 1014 29.94 843 24.89 -30.9 -23.6 72 -34.4 -29.9 0
03:45 1014 29.94 843 24.89 -31.1 -23.9 71 -34.7 -30.5 0
03:46 1014 29.94 843 24.89 -31.2 -24.2 72 -34.8 -30.6 0
03:47 1014 29.94 843 24.89 -31.4 -24.4 72 -34.9 -30.8 0
03:48 1014 29.94 843 24.89 -31.4 -24.4 73 -34.7 -30.4 0
03:49 1014 29.94 843 24.89 -31.3 -24.3 74 -34.5 -30.1 0
03:50 1014 29.94 843 24.89 -31.1 -23.9 77 -33.9 -29 0
03:51 1014 29.94 843 24.89 -31 -23.7 74 -34.2 -29.6 0
03:52 1014 29.94 843 24.89 -31 -23.8 74 -34.3 -29.7 0
03:53 1014 29.94 843 24.89 -30.9 -23.7 74 -34.1 -29.4 0
03:54 1014 29.94 843 24.89 -31 -23.7 73 -34.3 -29.8 0
03:55 1014 29.94 843 24.89 -31.1 -24 72 -34.6 -30.3 0
03:56 1014 29.94 843 24.89 -31.2 -24.2 71 -34.8 -30.7 0
03:57 1014 29.94 843 24.89 -31.4 -24.4 72 -34.9 -30.8 0
03:58 1014 29.94 843 24.89 -31.4 -24.5 72 -34.9 -30.8 0
03:59 1014 29.94 843 24.89 -31.5 -24.7 72 -35 -31 0
04:00 1014 29.94 843 24.89 -31.5 -24.8 72 -35 -30.9 0
04:01 1014 29.94 843 24.89 -31.5 -24.6 74 -34.7 -30.5 0
04:02 1014 29.94 843 24.89 -31.4 -24.5 74 -34.6 -30.3 0
04:03 1014 29.94 843 24.89 -31.3 -24.3 74 -34.5 -30.1 0
04:04 1014 29.94 843 24.89 -31.3 -24.3 73 -34.6 -30.2 0
04:05 1014 29.94 843 24.89 -31.2 -24.2 75 -34.3 -29.8 0
04:06 1014 29.94 843 24.89 -31.1 -24 74 -34.3 -29.8 0
04:07 1014 29.94 843 24.89 -31.1 -24 73 -34.4 -30 0
04:08 1014 29.94 843 24.89 -31.1 -24 74 -34.4 -29.9 0
04:09 1014 29.94 843 24.89 -31.2 -24.2 73 -34.6 -30.3 0
04:10 1014 29.94 843 24.89 -31.2 -24.2 73 -34.5 -30.2 0
04:11 1014 29.94 843 24.89 -31.2 -24.2 73 -34.5 -30.2 0
04:12 1014 29.94 843 24.89 -31.2 -24.2 74 -34.5 -30 0
04:13 1014 29.94 843 24.89 -31.2 -24.1 73 -34.5 -30 0
04:14 1014 29.94 843 24.89 -31.2 -24.1 74 -34.4 -29.9 0
04:15 1014 29.94 843 24.89 -31.3 -24.3 72 -34.7 -30.5 0
04:16 1014 29.94 843 24.89 -31.3 -24.4 73 -34.7 -30.4 0
04:17 1014 29.94 843 24.89 -31.3 -24.3 73 -34.6 -30.2 0
04:18 1014 29.94 843 24.89 -31.3 -24.3 73 -34.6 -30.2 0
04:19 1014 29.94 843 24.89 -31.3 -24.3 73 -34.7 -30.4 0
04:20 1014 29.94 843 24.89 -31.3 -24.4 73 -34.7 -30.5 0
04:21 1014 29.94 843 24.89 -31.3 -24.4 73 -34.7 -30.4 0
04:22 1014 29.94 843 24.89 -31.3 -24.4 73 -34.7 -30.5 0
04:23 1014 29.94 843 24.89 -31.3 -24.4 73 -34.7 -30.5 0
04:24 1014 29.94 843 24.89 -31.5 -24.6 71 -35 -31.1 0
04:25 1014 29.94 843 24.89 -31.6 -24.8 71 -35.2 -31.4 0
04:26 1014 29.94 843 24.89 -31.7 -25.1 71 -35.4 -31.7 0
04:27 1014 29.94 843 24.89 -31.9 -25.4 71 -35.5 -31.9 0
04:28 1014 29.94 843 24.89 -31.9 -25.5 72 -35.5 -31.9 0
04:29 1014 29.94 843 24.89 -32 -25.5 72 -35.4 -31.7 0
04:30 1014 29.94 843 24.89 -31.9 -25.4 74 -35.1 -31.2 0
04:31 1014 29.94 843 24.89 -31.7 -25 75 -34.8 -30.7 0
04:32 1014 29.94 843 24.89 -31.5 -24.8 74 -34.7 -30.5 0
04:33 1014 29.94 843 24.89 -31.4 -24.6 75 -34.6 -30.2 0
04:34 1014 29.94 843 24.89 -31.3 -24.4 75 -34.4 -30 0
04:35 1014 29.94 843 24.89 -31.2 -24.2 74 -34.4 -29.9 0
04:36 1014 29.94 843 24.89 -31.2 -24.1 73 -34.5 -30.1 0
04:37 1014 29.94 843 24.89 -31.4 -24.4 71 -35 -31.1 0
04:38 1014 29.94 843 24.89 -31.7 -25 70 -35.5 -31.9 0
04:39 1014 29.94 843 24.89 -31.9 -25.4 70 -35.6 -32.1 0
04:40 1014 29.94 843 24.89 -32 -25.6 71 -35.6 -32.2 0
04:41 1014 29.94 843 24.89 -32 -25.7 71 -35.6 -32.1 0
04:42 1014 29.94 843 24.89 -32.1 -25.8 72 -35.5 -32 0
04:43 1014 29.94 843 24.89 -32.1 -25.7 72 -35.6 -32 0
04:44 1014 29.94 843 24.89 -32 -25.6 73 -35.3 -31.5 0
04:45 1014 29.94 843 24.89 -32 -25.5 72 -35.5 -31.9 0
04:46 1014 29.94 843 24.89 -32.1 -25.8 71 -35.7 -32.3 0
04:47 1014 29.94 843 24.89 -32.1 -25.7 73 -35.3 -31.6 0
04:48 1014 29.94 843 24.89 -31.8 -25.2 76 -34.7 -30.5 0
04:49 1014 29.94 843 24.89 -31.3 -24.4 78 -34 -29.2 0
04:50 1014 29.94 843 24.89 -31.1 -23.9 75 -34.1 -29.4 0
04:51 1014 29.94 843 24.89 -31.1 -23.9 74 -34.2 -29.6 0
04:52 1014 29.94 843 24.89 -30.8 -23.5 76 -33.8 -28.9 0
04:53 1014 29.94 843 24.89 -30.8 -23.4 75 -33.9 -29.1 0
04:54 1014 29.94 843 24.89 -30.9 -23.5 72 -34.3 -29.8 0
04:55 1014 29.94 843 24.89 -30.8 -23.5 75 -33.9 -29.1 0
04:56 1014 29.94 843 24.89 -30.6 -23.1 76 -33.6 -28.4 0
04:57 1014 29.94 843 24.89 -30.5 -22.9 75 -33.5 -28.3 0
04:58 1014 29.94 843 24.89 -30.2 -22.3 78 -32.9 -27.2 0
04:59 1014 29.94 843 24.89 -30.2 -22.3 73 -33.5 -28.4 0
05:00 1014 29.94 843 24.89 -30.2 -22.3 74 -33.3 -28 0
05:01 1014 29.94 843 24.89 -30.2 -22.4 72 -33.7 -28.7 0
05:02 1014 29.94 843 24.89 -30.2 -22.4 75 -33.4 -28.1 0
05:03 1014 29.94 843 24.89 -30.2 -22.4 74 -33.4 -28.1 0
05:04 1014 29.94 843 24.89 -30.1 -22.1 75 -33.2 -27.8 0
05:05 1014 29.94 843 24.89 -29.9 -21.8 77 -32.7 -26.9 0
05:06 1014 29.94 843 24.89 -29.7 -21.4 76 -32.6 -26.7 0
05:07 1014 29.94 843 24.89 -29.4 -20.9 77 -32.3 -26.2 0
05:08 1014 29.94 843 24.89 -29.3 -20.7 76 -32.2 -26 0
05:09 1014 29.94 843 24.89 -29.1 -20.4 76 -32.1 -25.7 0
05:10 1014 29.94 843 24.89 -29 -20.2 76 -32 -25.6 0
05:11 1014 29.94 843 24.89 -28.9 -20 76 -31.9 -25.4 0
05:12 1014 29.94 843 24.89 -28.8 -19.8 76 -31.8 -25.2 0
05:13 1014 29.94 843 24.89 -28.7 -19.6 75 -31.8 -25.2 0
05:14 1014 29.94 843 24.89 -28.7 -19.6 74 -31.9 -25.4 0
05:15 1014 29.94 843 24.89 -28.8 -19.8 72 -32.3 -26.1 0
05:16 1014 29.94 843 24.89 -28.9 -20.1 73 -32.3 -26.2 0
05:17 1013 29.91 843 24.89 -29.1 -20.3 73 -32.5 -26.5 0
05:18 1013 29.91 843 24.89 -29.2 -20.6 73 -32.6 -26.7 0
05:19 1014 29.94 843 24.89 -29.3 -20.7 75 -32.4 -26.4 0
05:20 1014 29.94 843 24.89 -29.1 -20.4 76 -32.1 -25.8 0
05:21 1013 29.91 843 24.89 -28.9 -20.1 76 -31.9 -25.4 0
05:22 1013 29.91 843 24.89 -28.8 -19.9 75 -31.9 -25.5 0
05:23 1013 29.91 843 24.89 -28.8 -19.9 74 -32.1 -25.8 0
05:24 1013 29.91 843 24.89 -28.8 -19.8 76 -31.8 -25.3 0
05:25 1013 29.91 843 24.89 -28.6 -19.6 76 -31.6 -24.9 0
05:26 1014 29.94 843 24.89 -28.7 -19.7 73 -32.1 -25.8 0
05:27 1013 29.91 843 24.89 -28.8 -19.8 75 -32 -25.6 0
05:28 1013 29.91 843 24.89 -28.7 -19.7 75 -31.8 -25.2 0
05:29 1014 29.94 843 24.89 -28.6 -19.5 76 -31.6 -24.9 0
05:30 1014 29.94 843 24.89 -28.5 -19.3 76 -31.5 -24.7 0
05:31 1014 29.94 843 24.89 -28.3 -19 76 -31.3 -24.4 0
05:32 1014 29.94 843 24.89 -28.2 -18.8 76 -31.3 -24.3 0
05:33 1014 29.94 843 24.89 -28.2 -18.7 75 -31.3 -24.3 0
05:34 1014 29.94 843 24.89 -28.1 -18.6 75 -31.3 -24.3 0
05:35 1014 29.94 843 24.89 -28.1 -18.6 75 -31.3 -24.4 0
05:36 1014 29.94 843 24.89 -28.3 -18.9 72 -31.8 -25.3 0
05:37 1014 29.94 843 24.89 -28.5 -19.3 73 -31.9 -25.4 0
05:38 1013 29.91 843 24.89 -28.5 -19.3 74 -31.8 -25.2 0
05:39 1013 29.91 843 24.89 -28.6 -19.4 73 -32 -25.6 0
05:40 1013 29.91 843 24.89 -28.9 -19.9 71 -32.6 -26.7 0
05:41 1013 29.91 843 24.89 -29.3 -20.7 69 -33.3 -27.9 0
05:42 1013 29.91 843 24.89 -29.8 -21.6 71 -33.5 -28.3 0
05:43 1013 29.91 843 24.89 -29.8 -21.6 73 -33.2 -27.7 0
05:44 1014 29.94 843 24.89 -29.8 -21.6 75 -33 -27.3 0
05:45 1014 29.94 843 24.89 -29.6 -21.3 75 -32.7 -26.9 0
05:46 1014 29.94 843 24.89 -29.5 -21.1 75 -32.6 -26.7 0
05:47 1014 29.94 843 24.89 -29.5 -21 75 -32.6 -26.7 0
05:48 1014 29.94 843 24.89 -29.5 -21 74 -32.7 -26.9 0
05:49 1014 29.94 843 24.89 -29.5 -21.1 75 -32.7 -26.8 0
05:50 1014 29.94 843 24.89 -29.4 -20.9 75 -32.5 -26.6 0
05:51 1013 29.91 843 24.89 -29.4 -20.9 75 -32.5 -26.5 0
05:52 1013 29.91 843 24.89 -29.3 -20.8 75 -32.4 -26.4 0
05:53 1013 29.91 843 24.89 -29.2 -20.6 75 -32.3 -26.1 0
05:54 1013 29.91 843 24.89 -29.2 -20.5 75 -32.3 -26.1 0
05:55 1014 29.94 843 24.89 -29.2 -20.5 75 -32.4 -26.2 0
05:56 1014 29.94 843 24.89 -29.2 -20.6 74 -32.4 -26.4 0
05:57 1014 29.94 843 24.89 -29.3 -20.8 73 -32.7 -26.9 0
05:58 1014 29.94 843 24.89 -29.4 -20.9 75 -32.6 -26.7 0
05:59 1014 29.94 843 24.89 -29.4 -20.9 76 -32.4 -26.3 0
06:00 1014 29.94 843 24.89 -29.2 -20.6 75 -32.3 -26.1 0
06:01 1014 29.94 843 24.89 -29.2 -20.6 75 -32.4 -26.3 0
06:02 1014 29.94 843 24.89 -29.2 -20.6 74 -32.4 -26.4 0
06:03 1014 29.94 843 24.89 -29.2 -20.6 75 -32.3 -26.2 0
06:04 1014 29.94 843 24.89 -29.2 -20.5 75 -32.3 -26.1 0
06:05 1014 29.94 843 24.89 -29.1 -20.4 75 -32.3 -26.1 0
06:06 1014 29.94 843 24.89 -29.1 -20.3 75 -32.2 -26 0
06:07 1014 29.94 843 24.89 -29.1 -20.3 75 -32.2 -25.9 0
06:08 1014 29.94 843 24.89 -29 -20.1 75 -32 -25.7 0
06:09 1014 29.94 843 24.89 -28.8 -19.9 76 -31.8 -25.3 0
06:10 1014 29.94 843 24.89 -28.7 -19.7 76 -31.7 -25.1 0
06:11 1014 29.94 843 24.89 -28.6 -19.5 76 -31.6 -25 0
06:12 1014 29.94 843 24.89 -28.5 -19.3 75 -31.6 -24.9 0
06:13 1014 29.94 843 24.89 -28.4 -19.2 75 -31.6 -24.9 0
06:14 1014 29.94 843 24.89 -28.5 -19.2 75 -31.7 -25 0
06:15 1014 29.94 843 24.89 -28.5 -19.2 74 -31.7 -25 0
06:16 1014 29.94 843 24.89 -28.5 -19.3 74 -31.7 -25.1 0
06:17 1014 29.94 843 24.89 -28.5 -19.4 74 -31.8 -25.3 0
06:18 1014 29.94 843 24.89 -28.6 -19.5 73 -32 -25.6 0
06:19 1014 29.94 843 24.89 -28.7 -19.7 73 -32.1 -25.8 0
06:20 1014 29.94 843 24.89 -28.8 -19.9 73 -32.2 -26 0
06:21 1014 29.94 843 24.89 -29 -20.2 72 -32.6 -26.6 0
06:22 1014 29.94 843 24.89 -29.3 -20.7 71 -32.9 -27.2 0
06:23 1014 29.94 843 24.89 -29.5 -21.1 72 -33 -27.5 0
06:24 1014 29.94 843 24.89 -29.6 -21.3 73 -33.1 -27.6 0
06:25 1014 29.94 843 24.89 -29.7 -21.5 73 -33.1 -27.5 0
06:26 1014 29.94 843 24.89 -29.6 -21.3 74 -32.8 -27.1 0
06:27 1014 29.94 843 24.89 -29.5 -21.1 75 -32.6 -26.7 0
06:28 1014 29.94 843 24.89 -29.4 -20.8 76 -32.4 -26.3 0
06:29 1014 29.94 843 24.89 -29.2 -20.5 76 -32.2 -25.9 0
06:30 1014 29.94 843 24.89 -29.1 -20.3 76 -32.1 -25.8 0
06:31 1014 29.94 843 24.89 -29 -20.2 75 -32.1 -25.7 0
06:32 1014 29.94 843 24.89 -28.9 -20 75 -32.1 -25.7 0
06:33 1014 29.94 843 24.89 -28.9 -20 75 -32 -25.6 0
06:34 1014 29.94 843 24.89 -28.8 -19.9 75 -32 -25.5 0
06:35 1014 29.94 843 24.89 -28.8 -19.8 75 -31.9 -25.5 0
06:36 1014 29.94 843 24.89 -28.8 -19.9 74 -32.1 -25.8 0
06:37 1014 29.94 843 24.89 -29 -20.1 73 -32.4 -26.4 0
06:38 1014 29.94 843 24.89 -29.2 -20.5 73 -32.6 -26.7 0
06:39 1014 29.94 843 24.89 -29.3 -20.7 73 -32.7 -26.8 0
06:40 1014 29.94 843 24.89 -29.3 -20.8 74 -32.6 -26.6 0
06:41 1014 29.94 843 24.89 -29.3 -20.7 75 -32.3 -26.2 0
06:42 1014 29.94 843 24.89 -29.1 -20.3 76 -32 -25.7 0
06:43 1014 29.94 843 24.89 -28.9 -20.1 76 -31.9 -25.4 0
06:44 1014 29.94 843 24.89 -28.8 -19.8 76 -31.7 -25.1 0
06:45 1014 29.94 843 24.89 -28.6 -19.5 76 -31.6 -24.9 0
06:46 1014 29.94 843 24.89 -28.6 -19.5 76 -31.6 -25 0
06:47 1014 29.94 843 24.89 -28.6 -19.4 75 -31.7 -25 0
06:48 1014 29.94 843 24.89 -28.5 -19.4 75 -31.6 -24.9 0
06:49 1014 29.94 843 24.89 -28.5 -19.3 75 -31.6 -24.9 0
06:50 1014 29.94 843 24.89 -28.5 -19.2 75 -31.6 -24.9 0
06:51 1014 29.94 843 24.89 -28.4 -19.2 75 -31.6 -24.8 0
06:52 1014 29.94 843 24.89 -28.4 -19.2 75 -31.6 -24.8 0
06:53 1014 29.94 843 24.89 -28.4 -19.2 75 -31.5 -24.8 0
06:54 1014 29.94 843 24.89 -28.4 -19.1 75 -31.5 -24.7 0
06:55 1014 29.94 843 24.89 -28.4 -19.1 75 -31.5 -24.7 0
06:56 1014 29.94 843 24.89 -28.4 -19.1 75 -31.5 -24.7 0
06:57 1014 29.94 843 24.89 -28.3 -19 75 -31.5 -24.7 0
06:58 1014 29.94 843 24.89 -28.4 -19 75 -31.5 -24.7 0
06:59 1014 29.94 843 24.89 -28.3 -19 75 -31.5 -24.6 0
07:00 1014 29.94 843 24.89 -28.3 -19 75 -31.5 -24.7 0
07:01 1014 29.94 843 24.89 -28.3 -19 75 -31.5 -24.7 0
07:02 1014 29.94 843 24.89 -28.3 -19 75 -31.5 -24.7 0
07:03 1014 29.94 843 24.89 -28.4 -19.1 74 -31.6 -24.9 0
07:04 1014 29.94 843 24.89 -28.4 -19.1 75 -31.6 -24.9 0
07:05 1014 29.94 843 24.89 -28.5 -19.2 75 -31.7 -25 0
07:06 1014 29.94 843 24.89 -28.5 -19.2 75 -31.6 -24.8 0
07:07 1014 29.94 843 24.89 -28.4 -19.1 76 -31.4 -24.6 0
07:08 1014 29.94 843 24.89 -28.4 -19 75 -31.4 -24.6 0
07:09 1014 29.94 843 24.89 -28.3 -18.9 75 -31.4 -24.5 0
07:10 1014 29.94 843 24.89 -28.3 -18.9 75 -31.4 -24.5 0
07:11 1014 29.94 843 24.89 -28.3 -18.9 75 -31.4 -24.6 0
07:12 1014 29.94 843 24.89 -28.3 -18.9 75 -31.4 -24.5 0
07:13 1014 29.94 843 24.89 -28.3 -18.9 75 -31.4 -24.5 0
07:14 1014 29.94 843 24.89 -28.2 -18.8 75 -31.4 -24.5 0
07:15 1014 29.94 843 24.89 -28.3 -18.9 75 -31.4 -24.6 0
07:16 1014 29.94 843 24.89 -28.3 -18.9 75 -31.4 -24.6 0
07:17 1014 29.94 843 24.89 -28.3 -18.9 75 -31.5 -24.6 0
07:18 1014 29.94 843 24.89 -28.4 -19 75 -31.5 -24.7 0
07:19 1014 29.94 843 24.89 -28.3 -19 75 -31.5 -24.7 0
07:20 1014 29.94 843 24.89 -28.4 -19 75 -31.5 -24.7 0
07:21 1014 29.94 843 24.89 -28.4 -19 75 -31.5 -24.8 0
07:22 1014 29.94 843 24.89 -28.4 -19.1 75 -31.6 -24.8 0
07:23 1014 29.94 843 24.89 -28.5 -19.2 75 -31.6 -24.9 0
07:24 1014 29.94 843 24.89 -28.4 -19.2 75 -31.6 -24.8 0
07:25 1014 29.94 843 24.89 -28.4 -19.2 75 -31.6 -24.8 0
07:26 1014 29.94 843 24.89 -28.4 -19.1 75 -31.5 -24.7 0
07:27 1014 29.94 843 24.89 -28.4 -19.1 75 -31.5 -24.8 0
07:28 1014 29.94 843 24.89 -28.4 -19.2 75 -31.5 -24.8 0
07:29 1014 29.94 843 24.89 -28.4 -19.1 75 -31.5 -24.7 0
07:30 1014 29.94 843 24.89 -28.3 -19 75 -31.4 -24.6 0
07:31 1014 29.94 843 24.89 -28.3 -19 75 -31.4 -24.5 0
07:32 1014 29.94 843 24.89 -28.3 -19 75 -31.4 -24.6 0
07:33 1014 29.94 843 24.89 -28.3 -18.9 75 -31.4 -24.5 0
07:34 1014 29.94 843 24.89 -28.3 -18.9 75 -31.4 -24.5 0
07:35 1014 29.94 843 24.89 -28.3 -19 75 -31.4 -24.6 0
07:36 1014 29.94 843 24.89 -28.3 -19 75 -31.4 -24.6 0
07:37 1014 29.94 843 24.89 -28.3 -18.9 76 -31.4 -24.5 0
07:38 1014 29.94 843 24.89 -28.3 -18.9 76 -31.3 -24.4 0
07:39 1014 29.94 843 24.89 -28.3 -18.9 75 -31.4 -24.4 0
07:40 1014 29.94 843 24.89 -28.3 -18.9 75 -31.5 -24.6 0
07:41 1014 29.94 843 24.89 -28.3 -19 75 -31.5 -24.6 0
07:42 1014 29.94 843 24.89 -28.3 -19 75 -31.5 -24.7 0
07:43 1014 29.94 843 24.89 -28.3 -19 75 -31.5 -24.7 0
07:44 1014 29.94 843 24.89 -28.4 -19.1 75 -31.6 -24.9 0
07:45 1014 29.94 843 24.89 -28.4 -19.2 75 -31.6 -24.9 0
07:46 1014 29.94 843 24.89 -28.5 -19.3 75 -31.6 -24.9 0
07:47 1014 29.94 843 24.89 -28.5 -19.2 76 -31.5 -24.7 0
07:48 1014 29.94 843 24.89 -28.5 -19.2 75 -31.6 -24.9 0
07:49 1014 29.94 843 24.89 -28.5 -19.3 73 -32 -25.6 0
07:50 1014 29.94 843 24.89 -29.1 -20.4 69 -33.2 -27.7 0
07:51 1014 29.94 843 24.89 -29.7 -21.5 69 -33.7 -28.6 0
07:52 1014 29.94 843 24.89 -30.4 -22.7 67 -34.7 -30.4 0
07:53 1014 29.94 843 24.89 -30.8 -23.4 71 -34.4 -29.9 0
07:54 1014 29.94 843 24.89 -30.7 -23.3 74 -33.9 -29 0
07:55 1014 29.94 843 24.89 -30.5 -22.9 77 -33.4 -28.1 0
07:56 1014 29.94 843 24.89 -30.2 -22.3 78 -32.9 -27.2 0
07:57 1014 29.94 843 24.89 -29.9 -21.9 76 -32.9 -27.1 0
07:58 1014 29.94 843 24.89 -29.9 -21.8 76 -32.9 -27.3 0
07:59 1014 29.94 843 24.89 -29.8 -21.6 76 -32.7 -26.9 0
08:00 1014 29.94 843 24.89 -29.8 -21.6 74 -33 -27.3 0
08:01 1014 29.94 843 24.89 -29.8 -21.7 75 -32.9 -27.2 0
08:02 1014 29.94 843 24.89 -29.9 -21.8 73 -33.3 -28 0
08:03 1014 29.94 843 24.89 -30.1 -22.2 73 -33.5 -28.4 0
08:04 1014 29.94 843 24.89 -30.4 -22.7 72 -34 -29.1 0
08:05 1014 29.94 843 24.89 -30.7 -23.2 70 -34.5 -30 0
08:06 1014 29.94 843 24.89 -31.1 -23.9 70 -34.8 -30.7 0
08:07 1014 29.94 843 24.89 -31.3 -24.3 72 -34.8 -30.7 0
08:08 1014 29.94 843 24.89 -31.3 -24.4 73 -34.7 -30.4 0
08:09 1014 29.94 843 24.89 -31.2 -24.2 75 -34.3 -29.8 0
08:10 1014 29.94 843 24.89 -31.3 -24.3 73 -34.7 -30.4 0
08:11 1014 29.94 843 24.89 -31.4 -24.6 73 -34.8 -30.6 0
08:12 1014 29.94 843 24.89 -31.2 -24.2 76 -34.2 -29.6 0
08:13 1014 29.94 843 24.89 -31.2 -24.2 73 -34.5 -30.1 0
08:14 1014 29.94 843 24.89 -31.3 -24.3 74 -34.5 -30.1 0
08:15 1014 29.94 843 24.89 -31.2 -24.1 73 -34.5 -30 0
08:16 1014 29.94 843 24.89 -31.2 -24.1 75 -34.3 -29.7 0
08:17 1014 29.94 843 24.89 -30.9 -23.7 77 -33.8 -28.9 0
08:18 1014 29.94 843 24.89 -30.7 -23.2 77 -33.5 -28.2 0
08:19 1014 29.94 843 24.89 -30.4 -22.7 77 -33.1 -27.7 0
08:20 1014 29.94 843 24.89 -30.2 -22.4 75 -33.3 -27.9 0
08:21 1014 29.94 843 24.89 -30.2 -22.4 75 -33.3 -27.9 0
08:22 1014 29.94 843 24.89 -30.2 -22.4 75 -33.3 -28 0
08:23 1014 29.94 843 24.89 -30.2 -22.4 74 -33.5 -28.3 0
08:24 1014 29.94 843 24.89 -30.4 -22.8 73 -33.8 -28.9 0
08:25 1014 29.94 843 24.89 -30.5 -23 73 -33.9 -29 0
08:26 1014 29.94 843 24.89 -30.7 -23.2 73 -34 -29.3 0
08:27 1014 29.94 843 24.89 -30.7 -23.2 74 -34 -29.1 0
08:28 1014 29.94 843 24.89 -30.8 -23.5 72 -34.3 -29.8 0
08:29 1014 29.94 843 24.89 -31 -23.7 73 -34.3 -29.7 0
08:30 1014 29.94 843 24.89 -30.8 -23.4 75 -33.8 -28.9 0
08:31 1014 29.94 843 24.89 -30.6 -23.1 74 -33.8 -28.8 0
08:32 1014 29.94 843 24.89 -30.3 -22.6 78 -33.1 -27.5 0
08:33 1014 29.94 843 24.89 -29.8 -21.7 79 -32.4 -26.3 0
08:34 1014 29.94 843 24.89 -29.4 -21 78 -32.2 -25.9 0
08:35 1014 29.94 843 24.89 -29.3 -20.7 74 -32.6 -26.7 0
08:36 1014 29.94 843 24.89 -29.5 -21 72 -33 -27.4 0
08:37 1014 29.94 843 24.89 -29.9 -21.8 70 -33.7 -28.7 0
08:38 1014 29.94 843 24.89 -30.2 -22.3 71 -33.9 -28.9 0
08:39 1014 29.94 843 24.89 -30.4 -22.8 70 -34.2 -29.6 0
08:40 1014 29.94 843 24.89 -30.9 -23.5 68 -34.9 -30.9 0
08:41 1014 29.94 843 24.89 -31.3 -24.3 67 -35.6 -32 0
08:42 1014 29.94 843 24.89 -31.7 -25 69 -35.6 -32.1 0
08:43 1014 29.94 843 24.89 -31.7 -25 71 -35.3 -31.5 0
08:44 1014 29.94 843 24.89 -31.7 -25.1 71 -35.3 -31.6 0
08:45 1014 29.94 843 24.89 -31.7 -25.1 71 -35.4 -31.7 0
08:46 1014 29.94 843 24.89 -31.7 -25.1 71 -35.4 -31.6 0
08:47 1014 29.94 843 24.89 -31.7 -25.1 71 -35.4 -31.7 0
08:48 1014 29.94 843 24.89 -31.5 -24.7 75 -34.6 -30.3 0
08:49 1014 29.94 843 24.89 -30.9 -23.6 78 -33.6 -28.4 0
08:50 1014 29.94 843 24.89 -30.3 -22.5 79 -32.9 -27.1 0
08:51 1014 29.94 843 24.89 -29.8 -21.7 76 -32.8 -27 0
08:52 1014 29.94 843 24.89 -29.8 -21.7 72 -33.3 -28 0
08:53 1014 29.94 843 24.89 -29.9 -21.7 73 -33.3 -27.9 0
08:54 1014 29.94 843 24.89 -29.7 -21.4 74 -32.9 -27.3 0
08:55 1014 29.94 843 24.89 -29.5 -21.1 75 -32.6 -26.7 0
08:56 1014 29.94 843 24.89 -29.3 -20.8 74 -32.6 -26.7 0
08:57 1014 29.94 843 24.89 -29.2 -20.6 73 -32.6 -26.7 0
08:58 1014 29.94 843 24.89 -29.2 -20.6 72 -32.9 -27.2 0
08:59 1014 29.94 843 24.89 -29.4 -20.9 70 -33.2 -27.8 0
09:00 1014 29.94 843 24.89 -29.5 -21.2 70 -33.4 -28 0
09:01 1014 29.94 843 24.89 -29.6 -21.2 71 -33.2 -27.8 0
09:02 1014 29.94 843 24.89 -29.5 -21.1 72 -33 -27.5 0
09:03 1014 29.94 843 24.89 -29.5 -21.1 71 -33.2 -27.8 0
09:04 1014 29.94 843 24.89 -29.5 -21.2 70 -33.4 -28.1 0
09:05 1014 29.94 843 24.89 -29.6 -21.3 70 -33.4 -28.1 0
09:06 1014 29.94 843 24.89 -29.6 -21.3 71 -33.3 -28 0
09:07 1014 29.94 843 24.89 -29.6 -21.2 71 -33.3 -27.9 0
09:08 1014 29.94 843 24.89 -29.5 -21 72 -33 -27.5 0
09:09 1014 29.94 843 24.89 -29.2 -20.6 73 -32.6 -26.7 0
09:10 1014 29.94 843 24.89 -29 -20.2 74 -32.3 -26.2 0
09:11 1014 29.94 843 24.89 -28.8 -19.8 73 -32.2 -25.9 0
09:12 1014 29.94 843 24.89 -28.6 -19.5 72 -32.1 -25.9 0
09:13 1014 29.94 843 24.89 -28.5 -19.4 72 -32.2 -25.9 0
09:14 1014 29.94 843 24.89 -28.4 -19.2 72 -32.1 -25.7 0
09:15 1014 29.94 843 24.89 -28.4 -19.1 72 -32 -25.5 0
09:16 1014 29.94 843 24.89 -28.3 -18.9 71 -31.9 -25.5 0
09:17 1014 29.94 843 24.89 -28.2 -18.8 71 -32 -25.7 0
09:18 1014 29.94 843 24.89 -28.2 -18.8 71 -32 -25.6 0
09:19 1014 29.94 843 24.89 -28.1 -18.7 71 -32 -25.5 0
09:20 1014 29.94 843 24.89 -28.1 -18.6 70 -32 -25.6 0
09:21 1014 29.94 843 24.89 -28.1 -18.6 70 -32 -25.6 0
09:22 1014 29.94 844 24.92 -28 -18.4 72 -31.6 -25 0
09:23 1014 29.94 844 24.92 -27.8 -18.1 72 -31.4 -24.6 0
09:24 1014 29.94 844 24.92 -27.7 -17.8 71 -31.4 -24.5 0
09:25 1014 29.94 844 24.92 -27.6 -17.7 71 -31.3 -24.3 0
09:26 1014 29.94 844 24.92 -27.5 -17.5 71 -31.3 -24.3 0
09:27 1014 29.94 844 24.92 -27.5 -17.4 70 -31.4 -24.4 0
09:28 1014 29.94 844 24.92 -27.4 -17.3 71 -31.2 -24.1 0
09:29 1014 29.94 844 24.92 -27.3 -17.1 71 -31 -23.8 0
09:30 1014 29.94 844 24.92 -27.2 -16.9 71 -30.9 -23.6 0
09:31 1014 29.94 844 24.92 -27 -16.6 72 -30.7 -23.2 0
09:32 1014 29.94 844 24.92 -26.8 -16.3 72 -30.4 -22.7 0
09:33 1014 29.94 844 24.92 -26.6 -15.9 72 -30.3 -22.5 0
09:34 1014 29.94 844 24.92 -26.5 -15.6 72 -30.1 -22.2 0
09:35 1014 29.94 844 24.92 -26.3 -15.4 72 -30 -22 0
09:36 1014 29.94 844 24.92 -26.1 -15 72 -29.8 -21.6 0
09:37 1014 29.94 844 24.92 -26 -14.7 71 -29.7 -21.5 0
09:38 1015 29.97 844 24.92 -25.8 -14.5 71 -29.6 -21.3 0
09:39 1015 29.97 844 24.92 -25.7 -14.3 71 -29.6 -21.3 0
09:40 1015 29.97 844 24.92 -25.7 -14.2 70 -29.6 -21.3 0
09:41 1015 29.97 844 24.92 -25.5 -14 71 -29.4 -21 0
09:42 1015 29.97 844 24.92 -25.5 -13.8 70 -29.4 -21 0
09:43 1015 29.97 844 24.92 -25.4 -13.7 70 -29.4 -20.9 0
09:44 1015 29.97 844 24.92 -25.3 -13.6 70 -29.4 -20.9 0
09:45 1015 29.97 844 24.92 -25.3 -13.5 69 -29.3 -20.8 0
09:46 1015 29.97 844 24.92 -25.2 -13.3 69 -29.3 -20.8 0
09:47 1015 29.97 844 24.92 -25.2 -13.3 69 -29.3 -20.8 0
09:48 1015 29.97 844 24.92 -25.1 -13.2 69 -29.3 -20.7 0
09:49 1015 29.97 844 24.92 -25 -13.1 69 -29.1 -20.4 0
09:50 1015 29.97 844 24.92 -24.9 -12.9 69 -29.1 -20.4 0
09:51 1015 29.97 844 24.92 -24.8 -12.7 68 -29.1 -20.4 0
09:52 1015 29.97 844 24.92 -24.7 -12.5 67 -29.1 -20.4 0
09:53 1015 29.97 844 24.92 -24.7 -12.4 67 -29.2 -20.5 0
09:54 1015 29.97 844 24.92 -24.6 -12.2 66 -29.2 -20.5 0
09:55 1015 29.97 844 24.92 -24.5 -12.2 65 -29.3 -20.7 0
09:56 1015 29.97 844 24.92 -24.5 -12.1 66 -29.2 -20.6 0
09:57 1015 29.97 844 24.92 -24.4 -12 66 -29.1 -20.4 0
09:58 1015 29.97 844 24.92 -24.4 -11.8 65 -29.1 -20.4 0
09:59 1015 29.97 844 24.92 -24.3 -11.7 65 -29.2 -20.5 0
10:00 1015 29.97 844 24.92 -24.2 -11.5 65 -28.9 -20.1 0
10:01 1015 29.97 844 24.92 -24 -11.2 65 -28.8 -19.8 0
10:02 1015 29.97 844 24.92 -23.8 -10.9 64 -28.9 -20 0
10:03 1015 29.97 844 24.92 -23.7 -10.6 65 -28.6 -19.4 0
10:04 1015 29.97 844 24.92 -23.4 -10.1 64 -28.4 -19.1 0
10:05 1015 29.97 844 24.92 -23.1 -9.6 64 -28.1 -18.6 0
10:06 1015 29.97 844 24.92 -22.8 -9.1 64 -27.9 -18.3 0
10:07 1015 29.97 844 24.92 -22.6 -8.6 61 -28.1 -18.6 0
10:08 1015 29.97 844 24.92 -22.4 -8.2 61 -27.9 -18.2 0
10:09 1015 29.97 844 24.92 -22.1 -7.8 60 -27.9 -18.2 0
10:10 1015 29.97 844 24.92 -22 -7.6 58 -28.2 -18.8 0
10:11 1015 29.97 844 24.92 -22.1 -7.7 57 -28.5 -19.3 0
10:12 1015 29.97 844 24.92 -22.2 -7.9 58 -28.4 -19.2 0
10:13 1015 29.97 844 24.92 -22.1 -7.7 57 -28.4 -19.1 0
10:14 1015 29.97 844 24.92 -22.1 -7.8 57 -28.5 -19.3 0
10:15 1015 29.97 844 24.92 -22.2 -8 57 -28.6 -19.5 0
10:16 1015 29.97 844 24.92 -22.4 -8.2 56 -28.9 -19.9 0
10:17 1015 29.97 844 24.92 -22.4 -8.3 58 -28.6 -19.5 0
10:18 1015 29.97 844 24.92 -22.2 -8 58 -28.4 -19.1 0
10:19 1015 29.97 844 24.92 -22.2 -7.9 58 -28.4 -19.2 0
10:20 1015 29.97 844 24.92 -22.1 -7.7 57 -28.5 -19.3 0
10:21 1015 29.97 844 24.92 -22.2 -7.9 56 -28.7 -19.6 0
10:22 1015 29.97 844 24.92 -22.5 -8.4 56 -29.1 -20.3 0
10:23 1015 29.97 844 24.92 -22.8 -9 56 -29.3 -20.7 0
10:24 1015 29.97 844 24.92 -23 -9.3 57 -29.3 -20.8 0
10:25 1015 29.97 844 24.92 -23.1 -9.6 57 -29.4 -20.9 0
10:26 1015 29.97 844 24.92 -23.1 -9.7 58 -29.3 -20.8 0
10:27 1015 29.97 844 24.92 -23.1 -9.5 59 -29.1 -20.3 0
10:28 1015 29.97 844 24.92 -22.9 -9.1 58 -28.9 -20.1 0
10:29 1015 29.97 844 24.92 -22.7 -8.8 58 -28.9 -20 0
10:30 1015 29.97 844 24.92 -22.7 -8.8 57 -29 -20.3 0
10:31 1015 29.97 844 24.92 -22.7 -8.9 57 -29.1 -20.3 0
10:32 1015 29.97 844 24.92 -22.8 -9.1 57 -29.3 -20.7 0
10:33 1015 29.97 844 24.92 -22.9 -9.3 57 -29.3 -20.7 0
10:34 1015 29.97 844 24.92 -22.9 -9.2 57 -29.3 -20.7 0
10:35 1015 29.97 844 24.92 -23 -9.3 57 -29.3 -20.7 0
10:36 1015 29.97 844 24.92 -23 -9.4 57 -29.4 -20.9 0
10:37 1015 29.97 844 24.92 -23.1 -9.6 57 -29.5 -21.1 0
10:38 1015 29.97 844 24.92 -23.1 -9.7 57 -29.4 -21 0
10:39 1015 29.97 844 24.92 -23.2 -9.7 58 -29.3 -20.8 0
10:40 1015 29.97 844 24.92 -23.1 -9.5 58 -29.2 -20.6 0
10:41 1015 29.97 844 24.92 -23.1 -9.5 58 -29.2 -20.6 0
10:42 1015 29.97 844 24.92 -23 -9.3 58 -29.1 -20.5 0
10:43 1015 29.97 844 24.92 -22.9 -9.2 57 -29.2 -20.6 0
10:44 1015 29.97 844 24.92 -22.9 -9.3 57 -29.3 -20.7 0
10:45 1015 29.97 844 24.92 -23 -9.3 57 -29.4 -20.9 0
10:46 1015 29.97 844 24.92 -23.1 -9.5 57 -29.3 -20.8 0
10:47 1015 29.97 844 24.92 -23.1 -9.6 57 -29.4 -20.9 0
10:48 1015 29.97 844 24.92 -23.2 -9.8 57 -29.5 -21.1 0
10:49 1015 29.97 844 24.92 -23.3 -9.9 57 -29.5 -21.2 0
10:50 1015 29.97 844 24.92 -23.3 -9.9 57 -29.5 -21.2 0
10:51 1015 29.97 844 24.92 -23.4 -10.2 58 -29.6 -21.3 0
10:52 1015 29.97 844 24.92 -23.5 -10.3 58 -29.6 -21.3 0
10:53 1015 29.97 844 24.92 -23.5 -10.3 59 -29.5 -21 0
10:54 1015 29.97 844 24.92 -23.5 -10.3 59 -29.3 -20.8 0
10:55 1015 29.97 844 24.92 -23.4 -10.1 60 -29.1 -20.5 0
10:56 1015 29.97 844 24.92 -23.3 -10 59 -29.3 -20.7 0
10:57 1015 29.97 844 24.92 -23.3 -9.9 59 -29.2 -20.5 0
10:58 1015 29.97 845 24.95 -23.3 -9.9 58 -29.4 -20.8 0
10:59 1015 29.97 844 24.92 -23.3 -9.9 58 -29.3 -20.8 0
11:00 1015 29.97 845 24.95 -23.3 -9.9 58 -29.4 -20.8 0
11:01 1015 29.97 845 24.95 -23.2 -9.7 58 -29.2 -20.6 0
11:02 1015 29.97 845 24.95 -23.2 -9.8 58 -29.4 -20.9 0
11:03 1015 29.97 845 24.95 -23.2 -9.7 58 -29.3 -20.8 0
11:04 1015 29.97 845 24.95 -23.1 -9.6 58 -29.2 -20.6 0
11:05 1015 29.97 845 24.95 -23 -9.3 58 -29.1 -20.3 0
11:06 1015 29.97 845 24.95 -22.9 -9.1 57 -29.2 -20.6 0
11:07 1015 29.97 845 24.95 -22.8 -9.1 57 -29.2 -20.5 0
11:08 1015 29.97 845 24.95 -22.8 -9 56 -29.3 -20.7 0
11:09 1015 29.97 845 24.95 -22.8 -9 56 -29.4 -21 0
11:10 1015 29.97 844 24.92 -22.9 -9.2 55 -29.6 -21.3 0
11:11 1015 29.97 844 24.92 -22.9 -9.3 55 -29.6 -21.4 0
11:12 1015 29.97 844 24.92 -23 -9.4 56 -29.6 -21.3 0
11:13 1015 29.97 844 24.92 -23.1 -9.5 56 -29.6 -21.3 0
11:14 1015 29.97 844 24.92 -23.1 -9.7 57 -29.5 -21.1 0
11:15 1015 29.97 844 24.92 -23.2 -9.7 57 -29.5 -21.1 0
11:16 1015 29.97 844 24.92 -23.1 -9.6 57 -29.4 -20.9 0
11:17 1015 29.97 844 24.92 -23.1 -9.7 57 -29.5 -21 0
11:18 1015 29.97 844 24.92 -23.1 -9.6 57 -29.4 -21 0
11:19 1015 29.97 844 24.92 -23.1 -9.5 57 -29.3 -20.8 0
11:20 1015 29.97 844 24.92 -23.1 -9.5 57 -29.5 -21 0
11:21 1015 29.97 844 24.92 -23.1 -9.5 57 -29.4 -21 0
11:22 1015 29.97 844 24.92 -23.1 -9.6 57 -29.4 -20.9 0
11:23 1015 29.97 844 24.92 -23.1 -9.5 57 -29.4 -20.8 0
11:24 1015 29.97 844 24.92 -23.1 -9.5 57 -29.3 -20.8 0
11:25 1015 29.97 844 24.92 -23 -9.5 57 -29.3 -20.7 0
11:26 1015 29.97 844 24.92 -23 -9.4 57 -29.3 -20.7 0
11:27 1015 29.97 844 24.92 -23 -9.3 57 -29.3 -20.7 0
11:28 1015 29.97 844 24.92 -22.9 -9.3 57 -29.2 -20.6 0
11:29 1015 29.97 844 24.92 -22.9 -9.2 57 -29.3 -20.8 0
11:30 1015 29.97 844 24.92 -22.8 -9 57 -29.2 -20.5 0
11:31 1015 29.97 844 24.92 -22.7 -8.8 56 -29.2 -20.5 0
11:32 1015 29.97 844 24.92 -22.6 -8.7 57 -29 -20.1 0
11:33 1015 29.97 844 24.92 -22.6 -8.6 56 -29.1 -20.4 0
11:34 1015 29.97 844 24.92 -22.5 -8.5 56 -29.1 -20.4 0
11:35 1015 29.97 844 24.92 -22.6 -8.6 56 -29.2 -20.6 0
11:36 1015 29.97 844 24.92 -22.6 -8.7 55 -29.2 -20.6 0
11:37 1015 29.97 844 24.92 -22.6 -8.7 56 -29.1 -20.5 0
11:38 1015 29.97 844 24.92 -22.6 -8.7 56 -29.1 -20.5 0
11:39 1015 29.97 844 24.92 -22.6 -8.7 56 -29.1 -20.4 0
11:40 1015 29.97 844 24.92 -22.5 -8.5 56 -29 -20.1 0
11:41 1015 29.97 844 24.92 -22.4 -8.3 56 -29 -20.1 0
11:42 1015 29.97 844 24.92 -22.3 -8.1 55 -29 -20.2 0
11:43 1015 29.97 844 24.92 -22.4 -8.2 55 -29 -20.2 0
11:44 1015 29.97 844 24.92 -22.2 -8 55 -29 -20.1 0
11:45 1015 29.97 844 24.92 -22.2 -7.9 55 -28.9 -20 0
11:46 1015 29.97 844 24.92 -22.1 -7.8 55 -28.8 -19.9 0
11:47 1015 29.97 844 24.92 -22.1 -7.9 55 -28.8 -19.9 0
11:48 1015 29.97 844 24.92 -22.2 -8 55 -28.9 -20 0
11:49 1015 29.97 844 24.92 -22.3 -8.1 56 -28.9 -20 0
11:50 1015 29.97 844 24.92 -22.3 -8.2 56 -28.8 -19.9 0
11:51 1015 29.97 844 24.92 -22.4 -8.3 56 -29 -20.1 0
11:52 1015 29.97 844 24.92 -22.5 -8.5 56 -29 -20.1 0
11:53 1015 29.97 844 24.92 -22.5 -8.6 57 -28.8 -19.9 0
11:54 1015 29.97 844 24.92 -22.5 -8.5 57 -29 -20.1 0
11:55 1015 29.97 844 24.92 -22.5 -8.5 56 -29 -20.2 0
11:56 1015 29.97 844 24.92 -22.4 -8.4 56 -29.1 -20.3 0
11:57 1015 29.97 844 24.92 -22.4 -8.3 56 -29 -20.2 0
11:58 1015 29.97 844 24.92 -22.4 -8.3 56 -28.9 -20.1 0
11:59 1015 29.97 844 24.92 -22.4 -8.3 56 -29 -20.2 0
12:00 1015 29.97 844 24.92 -22.3 -8.2 56 -28.9 -20 0
12:01 1015 29.97 844 24.92 -22.3 -8.1 57 -28.7 -19.7 0
12:02 1015 29.97 844 24.92 -22.2 -7.9 56 -28.7 -19.6 0
12:03 1015 29.97 844 24.92 -22.1 -7.8 55 -28.8 -19.8 0
12:04 1015 29.97 844 24.92 -22.1 -7.8 56 -28.7 -19.6 0
12:05 1015 29.97 844 24.92 -22.1 -7.8 56 -28.7 -19.7 0
12:06 1015 29.97 844 24.92 -22.2 -7.9 56 -28.7 -19.7 0
12:07 1015 29.97 844 24.92 -22.1 -7.8 56 -28.6 -19.5 0
12:08 1015 29.97 844 24.92 -22.1 -7.7 56 -28.7 -19.6 0
12:09 1015 29.97 844 24.92 -22.1 -7.7 56 -28.7 -19.6 0
12:10 1015 29.97 844 24.92 -22.1 -7.7 56 -28.7 -19.7 0
12:11 1015 29.97 844 24.92 -22.1 -7.8 56 -28.7 -19.6 0
12:12 1015 29.97 844 24.92 -22.1 -7.7 56 -28.6 -19.4 0
12:13 1015 29.97 844 24.92 -22.1 -7.8 56 -28.6 -19.5 0
12:14 1015 29.97 844 24.92 -22.1 -7.7 55 -28.8 -19.8 0
12:15 1015 29.97 844 24.92 -22.1 -7.7 55 -28.8 -19.8 0
12:16 1015 29.97 844 24.92 -22.1 -7.8 56 -28.7 -19.6 0
12:17 1015 29.97 844 24.92 -22.1 -7.8 56 -28.7 -19.7 0
12:18 1015 29.97 844 24.92 -22.1 -7.8 55 -28.8 -19.8 0
12:19 1015 29.97 844 24.92 -22.1 -7.7 55 -28.8 -19.9 0
12:20 1015 29.97 844 24.92 -22.1 -7.8 56 -28.7 -19.7 0
12:21 1015 29.97 844 24.92 -22.1 -7.8 56 -28.7 -19.7 0
12:22 1015 29.97 844 24.92 -22.1 -7.8 56 -28.7 -19.6 0
12:23 1015 29.97 844 24.92 -22.2 -7.9 57 -28.6 -19.5 0
12:24 1015 29.97 844 24.92 -22.2 -8 58 -28.4 -19.2 0
12:25 1015 29.97 844 24.92 -22.3 -8.1 58 -28.4 -19.2 0
12:26 1015 29.97 844 24.92 -22.4 -8.2 58 -28.5 -19.2 0
12:27 1015 29.97 844 24.92 -22.5 -8.4 59 -28.4 -19.1 0
12:28 1015 29.97 844 24.92 -22.5 -8.4 59 -28.4 -19.2 0
12:29 1015 29.97 844 24.92 -22.5 -8.5 58 -28.6 -19.4 0
12:30 1015 29.97 844 24.92 -22.6 -8.6 59 -28.5 -19.4 0
12:31 1015 29.97 844 24.92 -22.5 -8.6 59 -28.5 -19.3 0
12:32 1015 29.97 844 24.92 -22.6 -8.7 59 -28.7 -19.6 0
12:33 1015 29.97 844 24.92 -22.6 -8.7 59 -28.6 -19.5 0
12:34 1015 29.97 844 24.92 -22.6 -8.7 60 -28.5 -19.2 0
12:35 1015 29.97 844 24.92 -22.5 -8.5 59 -28.4 -19.1 0
12:36 1015 29.97 844 24.92 -22.5 -8.5 60 -28.4 -19.1 0
12:37 1015 29.97 844 24.92 -22.5 -8.4 60 -28.3 -19 0
12:38 1015 29.97 844 24.92 -22.4 -8.3 59 -28.4 -19.1 0
12:39 1015 29.97 844 24.92 -22.4 -8.3 59 -28.4 -19.1 0
12:40 1015 29.97 844 24.92 -22.4 -8.4 58 -28.5 -19.4 0
12:41 1015 29.97 844 24.92 -22.5 -8.5 59 -28.5 -19.3 0
12:42 1015 29.97 844 24.92 -22.6 -8.6 59 -28.6 -19.4 0
12:43 1015 29.97 844 24.92 -22.6 -8.7 61 -28.2 -18.8 0
12:44 1015 29.97 844 24.92 -22.6 -8.6 60 -28.4 -19.1 0
12:45 1015 29.97 844 24.92 -22.6 -8.6 60 -28.3 -19 0
12:46 1015 29.97 844 24.92 -22.6 -8.6 60 -28.4 -19.2 0
12:47 1015 29.97 844 24.92 -22.5 -8.5 60 -28.4 -19.1 0
12:48 1015 29.97 844 24.92 -22.5 -8.4 60 -28.3 -19 0
12:49 1015 29.97 844 24.92 -22.5 -8.5 59 -28.4 -19.1 0
12:50 1015 29.97 844 24.92 -22.5 -8.5 60 -28.3 -18.9 0
12:51 1015 29.97 844 24.92 -22.4 -8.3 61 -28.1 -18.6 0
12:52 1015 29.97 844 24.92 -22.3 -8.1 59 -28.3 -18.9 0
12:53 1015 29.97 844 24.92 -22.2 -8 58 -28.4 -19.1 0
12:54 1015 29.97 844 24.92 -22.2 -8 59 -28.3 -18.9 0
12:55 1015 29.97 844 24.92 -22.2 -7.9 59 -28.2 -18.8 0
12:56 1015 29.97 844 24.92 -22.2 -7.9 59 -28.1 -18.6 0
12:57 1015 29.97 844 24.92 -22.2 -8 59 -28.3 -18.9 0
12:58 1015 29.97 844 24.92 -22.3 -8.2 59 -28.4 -19.1 0
12:59 1015 29.97 844 24.92 -22.3 -8.1 59 -28.3 -18.9 0
13:00 1015 29.97 844 24.92 -22.2 -8 59 -28.2 -18.7 0
13:01 1015 29.97 844 24.92 -22.2 -8 59 -28.1 -18.6 0
13:02 1015 29.97 844 24.92 -22.1 -7.8 59 -28 -18.4 0
13:03 1015 29.97 844 24.92 -22 -7.6 59 -28 -18.4 0
13:04 1015 29.97 844 24.92 -21.9 -7.3 58 -28.1 -18.6 0
13:05 1015 29.97 844 24.92 -21.7 -7 58 -27.9 -18.2 0
13:06 1015 29.97 844 24.92 -21.5 -6.8 57 -28 -18.3 0
13:07 1015 29.97 844 24.92 -21.5 -6.6 56 -28 -18.4 0
13:08 1015 29.97 844 24.92 -21.5 -6.7 56 -28.1 -18.5 0
13:09 1015 29.97 844 24.92 -21.5 -6.6 56 -28 -18.4 0
13:10 1015 29.97 844 24.92 -21.3 -6.4 56 -27.9 -18.3 0
13:11 1015 29.97 844 24.92 -21.3 -6.3 56 -27.9 -18.2 0
13:12 1015 29.97 844 24.92 -21.2 -6.1 56 -27.7 -17.9 0
13:13 1015 29.97 844 24.92 -21.1 -5.9 55 -27.8 -18 0
13:14 1015 29.97 844 24.92 -21.1 -5.9 56 -27.7 -17.8 0
13:15 1015 29.97 844 24.92 -21 -5.8 56 -27.7 -17.8 0
13:16 1015 29.97 844 24.92 -21 -5.7 55 -27.8 -18 0
13:17 1015 29.97 844 24.92 -20.9 -5.6 56 -27.6 -17.6 0
13:18 1015 29.97 844 24.92 -20.7 -5.2 55 -27.5 -17.4 0
13:19 1015 29.97 844 24.92 -20.4 -4.7 55 -27.3 -17.2 0
13:20 1015 29.97 844 24.92 -20.3 -4.5 55 -27.1 -16.8 0
13:21 1015 29.97 844 24.92 -20 -4 54 -27 -16.7 0
13:22 1015 29.97 844 24.92 -19.9 -3.9 53 -27.3 -17.2 0
13:23 1015 29.97 844 24.92 -20.1 -4.1 53 -27.4 -17.3 0
13:24 1015 29.97 844 24.92 -20.1 -4.2 53 -27.4 -17.3 0
13:25 1015 29.97 844 24.92 -20 -4.1 53 -27.4 -17.3 0
13:26 1015 29.97 844 24.92 -20.1 -4.1 52 -27.6 -17.7 0
13:27 1015 29.97 844 24.92 -20.1 -4.3 53 -27.4 -17.3 0
13:28 1015 29.97 844 24.92 -20.1 -4.2 52 -27.6 -17.8 0
13:29 1015 29.97 844 24.92 -20.1 -4.1 53 -27.3 -17.1 0
13:30 1015 29.97 844 24.92 -20 -4 53 -27.3 -17.1 0
13:31 1015 29.97 844 24.92 -19.9 -3.9 51 -27.5 -17.6 0
13:32 1015 29.97 844 24.92 -19.9 -3.9 52 -27.5 -17.5 0
13:33 1015 29.97 844 24.92 -20 -4 52 -27.4 -17.4 0
13:34 1015 29.97 844 24.92 -20.1 -4.1 53 -27.4 -17.3 0
13:35 1015 29.97 844 24.92 -20.1 -4.2 53 -27.5 -17.5 0
13:36 1015 29.97 844 24.92 -20.1 -4.2 53 -27.4 -17.3 0
13:37 1015 29.97 844 24.92 -20 -4.1 52 -27.5 -17.5 0
13:38 1015 29.97 844 24.92 -20.1 -4.1 52 -27.7 -17.8 0
13:39 1015 29.97 844 24.92 -20.1 -4.2 53 -27.4 -17.4 0
13:40 1015 29.97 844 24.92 -20.2 -4.3 52 -27.6 -17.6 0
13:41 1015 29.97 844 24.92 -20.3 -4.5 53 -27.6 -17.7 0
13:42 1015 29.97 844 24.92 -20.2 -4.4 52 -27.8 -18 0
13:43 1015 29.97 844 24.92 -20.3 -4.6 52 -27.8 -18.1 0
13:44 1015 29.97 844 24.92 -20.4 -4.7 53 -27.7 -17.9 0
13:45 1015 29.97 844 24.92 -20.4 -4.7 53 -27.8 -18 0
13:46 1015 29.97 844 24.92 -20.4 -4.8 52 -27.9 -18.2 0
13:47 1015 29.97 844 24.92 -20.5 -4.9 53 -27.9 -18.2 0
13:48 1015 29.97 844 24.92 -20.6 -5.2 53 -27.9 -18.2 0
13:49 1015 29.97 844 24.92 -20.8 -5.4 53 -28 -18.4 0
13:50 1015 29.97 844 24.92 -20.9 -5.6 54 -27.9 -18.2 0
13:51 1015 29.97 844 24.92 -20.9 -5.6 54 -27.9 -18.2 0
13:52 1015 29.97 844 24.92 -20.9 -5.6 54 -27.8 -18.1 0
13:53 1015 29.97 844 24.92 -20.8 -5.5 54 -28 -18.3 0
13:54 1015 29.97 844 24.92 -20.8 -5.5 54 -27.9 -18.3 0
13:55 1015 29.97 844 24.92 -20.8 -5.5 53 -28 -18.4 0
13:56 1015 29.97 844 24.92 -20.9 -5.6 54 -28 -18.4 0
13:57 1015 29.97 844 24.92 -20.9 -5.7 53 -28.1 -18.5 0
13:58 1015 29.97 844 24.92 -20.9 -5.6 53 -28.2 -18.7 0
13:59 1015 29.97 844 24.92 -20.9 -5.6 53 -28.2 -18.7 0
14:00 1015 29.97 844 24.92 -20.8 -5.5 53 -28 -18.5 0
14:01 1015 29.97 844 24.92 -20.8 -5.5 53 -28.1 -18.5 0
14:02 1015 29.97 844 24.92 -20.8 -5.4 53 -28 -18.5 0
14:03 1015 29.97 844 24.92 -20.8 -5.4 52 -28.3 -18.9 0
14:04 1015 29.97 844 24.92 -20.9 -5.5 52 -28.3 -19 0
14:05 1015 29.97 844 24.92 -20.9 -5.6 53 -28.1 -18.6 0
14:06 1015 29.97 844 24.92 -20.9 -5.6 53 -28.1 -18.7 0
14:07 1015 29.97 844 24.92 -20.9 -5.6 54 -28 -18.4 0
14:08 1015 29.97 844 24.92 -20.9 -5.6 55 -27.7 -17.9 0
14:09 1015 29.97 844 24.92 -20.8 -5.5 55 -27.7 -17.9 0
14:10 1015 29.97 844 24.92 -20.8 -5.4 54 -27.8 -18.1 0
14:11 1015 29.97 844 24.92 -20.7 -5.3 54 -27.7 -17.9 0
14:12 1015 29.97 844 24.92 -20.7 -5.2 54 -27.7 -17.9 0
14:13 1015 29.97 844 24.92 -20.5 -5 54 -27.6 -17.7 0
14:14 1015 29.97 844 24.92 -20.5 -4.8 53 -27.7 -17.8 0
14:15 1015 29.97 844 24.92 -20.4 -4.8 54 -27.6 -17.6 0
14:16 1015 29.97 844 24.92 -20.5 -4.9 53 -27.8 -18.1 0
14:17 1015 29.97 844 24.92 -20.6 -5 53 -27.9 -18.1 0
14:18 1015 29.97 844 24.92 -20.5 -5 53 -27.8 -18.1 0
14:19 1015 29.97 844 24.92 -20.5 -5 53 -27.7 -17.9 0
14:20 1015 29.97 844 24.92 -20.4 -4.8 54 -27.5 -17.6 0
14:21 1015 29.97 844 24.92 -20.4 -4.7 53 -27.6 -17.6 0
14:22 1015 29.97 844 24.92 -20.4 -4.6 53 -27.6 -17.7 0
14:23 1015 29.97 844 24.92 -20.4 -4.7 54 -27.5 -17.5 0
14:24 1015 29.97 844 24.92 -20.3 -4.6 54 -27.5 -17.4 0
14:25 1015 29.97 844 24.92 -20.3 -4.6 53 -27.6 -17.7 0
14:26 1015 29.97 844 24.92 -20.3 -4.6 53 -27.6 -17.6 0
14:27 1015 29.97 844 24.92 -20.4 -4.7 53 -27.7 -17.9 0
14:28 1015 29.97 844 24.92 -20.5 -4.9 53 -27.8 -18 0
14:29 1015 29.97 844 24.92 -20.6 -5.1 53 -27.8 -18.1 0
14:30 1015 29.97 844 24.92 -20.8 -5.4 54 -27.9 -18.2 0
14:31 1015 29.97 844 24.92 -20.9 -5.6 54 -27.9 -18.2 0
14:32 1015 29.97 844 24.92 -21 -5.8 55 -27.9 -18.2 0
14:33 1015 29.97 844 24.92 -21.1 -6 54 -28.1 -18.6 0
14:34 1015 29.97 844 24.92 -21.2 -6.2 55 -28 -18.4 0
14:35 1015 29.97 844 24.92 -21.3 -6.3 55 -28 -18.4 0
14:36 1015 29.97 844 24.92 -21.3 -6.3 55 -28 -18.4 0
14:37 1015 29.97 844 24.92 -21.3 -6.3 56 -28 -18.3 0
14:38 1015 29.97 844 24.92 -21.3 -6.3 56 -27.9 -18.3 0
14:39 1015 29.97 844 24.92 -21.4 -6.4 56 -28 -18.5 0
14:40 1015 29.97 844 24.92 -21.5 -6.7 56 -28.1 -18.6 0
14:41 1015 29.97 844 24.92 -21.6 -6.9 57 -28.1 -18.5 0
14:42 1015 29.97 844 24.92 -21.7 -7 57 -28 -18.4 0
14:43 1015 29.97 844 24.92 -21.8 -7.2 57 -28.1 -18.5 0
14:44 1015 29.97 844 24.92 -21.8 -7.3 58 -28 -18.5 0
14:45 1015 29.97 844 24.92 -21.8 -7.2 59 -27.9 -18.2 0
14:46 1015 29.97 844 24.92 -21.7 -7.1 59 -27.8 -18.1 0
14:47 1015 29.97 844 24.92 -21.6 -6.9 58 -27.8 -18 0
14:48 1015 29.97 844 24.92 -21.5 -6.8 58 -27.7 -17.9 0
14:49 1015 29.97 844 24.92 -21.5 -6.7 58 -27.7 -17.9 0
14:50 1015 29.97 844 24.92 -21.4 -6.6 58 -27.6 -17.7 0
14:51 1015 29.97 844 24.92 -21.4 -6.6 58 -27.7 -17.9 0
14:52 1015 29.97 844 24.92 -21.4 -6.5 58 -27.6 -17.8 0
14:53 1015 29.97 844 24.92 -21.3 -6.4 58 -27.6 -17.6 0
14:54 1015 29.97 844 24.92 -21.4 -6.5 58 -27.6 -17.7 0
14:55 1015 29.97 844 24.92 -21.4 -6.5 58 -27.5 -17.5 0
14:56 1015 29.97 844 24.92 -21.3 -6.4 59 -27.4 -17.4 0
14:57 1015 29.97 844 24.92 -21.3 -6.3 59 -27.4 -17.3 0
14:58 1015 29.97 844 24.92 -21.1 -6 58 -27.2 -17 0
14:59 1015 29.97 844 24.92 -21 -5.8 58 -27.3 -17.2 0
15:00 1015 29.97 844 24.92 -21 -5.8 57 -27.5 -17.4 0
15:01 1015 29.97 844 24.92 -21 -5.8 56 -27.6 -17.6 0
15:02 1015 29.97 844 24.92 -21.1 -6 57 -27.5 -17.5 0
15:03 1015 29.97 844 24.92 -21.1 -6 57 -27.5 -17.6 0
15:04 1015 29.97 844 24.92 -21.1 -6 57 -27.6 -17.6 0
15:05 1015 29.97 844 24.92 -21.2 -6.1 57 -27.6 -17.6 0
15:06 1015 29.97 844 24.92 -21.2 -6.1 57 -27.5 -17.5 0
15:07 1015 29.97 844 24.92 -21.2 -6.1 57 -27.6 -17.6 0
15:08 1015 29.97 844 24.92 -21.3 -6.3 57 -27.6 -17.7 0
15:09 1015 29.97 844 24.92 -21.3 -6.3 57 -27.6 -17.7 0
15:10 1015 29.97 844 24.92 -21.4 -6.5 58 -27.6 -17.7 0
15:11 1015 29.97 844 24.92 -21.4 -6.5 58 -27.6 -17.7 0
15:12 1015 29.97 844 24.92 -21.5 -6.6 58 -27.6 -17.7 0
15:13 1015 29.97 844 24.92 -21.6 -6.8 59 -27.5 -17.5 0
15:14 1015 29.97 844 24.92 -21.6 -6.9 60 -27.5 -17.5 0
15:15 1015 29.97 844 24.92 -21.6 -6.9 60 -27.5 -17.5 0
15:16 1015 29.97 844 24.92 -21.6 -6.9 60 -27.5 -17.4 0
15:17 1015 29.97 844 24.92 -21.6 -6.9 60 -27.5 -17.4 0
15:18 1015 29.97 844 24.92 -21.6 -6.9 60 -27.4 -17.3 0
15:19 1015 29.97 844 24.92 -21.6 -6.9 60 -27.4 -17.3 0
15:20 1015 29.97 844 24.92 -21.7 -7 59 -27.6 -17.6 0
15:21 1015 29.97 844 24.92 -21.6 -7 59 -27.6 -17.8 0
15:22 1015 29.97 844 24.92 -21.6 -6.9 59 -27.7 -17.8 0
15:23 1015 29.97 844 24.92 -21.6 -6.9 59 -27.7 -17.8 0
15:24 1015 29.97 844 24.92 -21.6 -6.9 59 -27.6 -17.7 0
15:25 1015 29.97 844 24.92 -21.6 -6.8 59 -27.5 -17.6 0
15:26 1015 29.97 844 24.92 -21.5 -6.7 59 -27.5 -17.5 0
15:27 1015 29.97 844 24.92 -21.5 -6.7 59 -27.5 -17.5 0
15:28 1015 29.97 844 24.92 -21.5 -6.7 60 -27.4 -17.3 0
15:29 1015 29.97 844 24.92 -21.4 -6.5 59 -27.4 -17.3 0
15:30 1015 29.97 844 24.92 -21.4 -6.5 59 -27.4 -17.3 0
15:31 1015 29.97 844 24.92 -21.3 -6.3 59 -27.4 -17.3 0
15:32 1015 29.97 844 24.92 -21.3 -6.3 58 -27.4 -17.4 0
15:33 1015 29.97 844 24.92 -21.2 -6.2 58 -27.5 -17.5 0
15:34 1015 29.97 844 24.92 -21.2 -6.1 58 -27.5 -17.4 0
15:35 1015 29.97 844 24.92 -21.2 -6.2 57 -27.5 -17.6 0
15:36 1015 29.97 844 24.92 -21.2 -6.2 57 -27.6 -17.6 0
15:37 1015 29.97 844 24.92 -21.3 -6.3 57 -27.6 -17.7 0
15:38 1015 29.97 844 24.92 -21.4 -6.4 58 -27.7 -17.8 0
15:39 1015 29.97 844 24.92 -21.4 -6.5 58 -27.7 -17.8 0
15:40 1015 29.97 844 24.92 -21.4 -6.5 58 -27.6 -17.6 0
15:41 1015 29.97 844 24.92 -21.4 -6.6 58 -27.7 -17.8 0
15:42 1015 29.97 844 24.92 -21.4 -6.6 58 -27.6 -17.7 0
15:43 1015 29.97 844 24.92 -21.4 -6.6 59 -27.5 -17.6 0
15:44 1015 29.97 844 24.92 -21.4 -6.5 59 -27.5 -17.5 0
15:45 1015 29.97 844 24.92 -21.4 -6.5 59 -27.5 -17.4 0
15:46 1015 29.97 844 24.92 -21.4 -6.5 59 -27.4 -17.3 0
15:47 1015 29.97 844 24.92 -21.3 -6.4 59 -27.3 -17.1 0
15:48 1015 29.97 844 24.92 -21.3 -6.3 59 -27.4 -17.4 0
15:49 1015 29.97 844 24.92 -21.4 -6.4 58 -27.5 -17.6 0
15:50 1015 29.97 844 24.92 -21.4 -6.5 58 -27.6 -17.7 0
15:51 1015 29.97 844 24.92 -21.4 -6.6 58 -27.6 -17.6 0
15:52 1015 29.97 844 24.92 -21.4 -6.5 58 -27.5 -17.6 0
15:53 1015 29.97 844 24.92 -21.4 -6.6 58 -27.6 -17.7 0
15:54 1015 29.97 844 24.92 -21.5 -6.6 59 -27.5 -17.6 0
15:55 1015 29.97 844 24.92 -21.5 -6.7 59 -27.5 -17.5 0
15:56 1015 29.97 844 24.92 -21.6 -6.8 59 -27.6 -17.7 0
15:57 1015 29.97 844 24.92 -21.7 -7 59 -27.7 -17.9 0
15:58 1015 29.97 844 24.92 -21.8 -7.2 59 -27.8 -18.1 0
15:59 1015 29.97 844 24.92 -21.8 -7.3 59 -27.9 -18.2 0
16:00 1015 29.97 844 24.92 -21.9 -7.5 59 -27.9 -18.3 0
16:01 1015 29.97 844 24.92 -21.9 -7.5 59 -27.9 -18.2 0
16:02 1015 29.97 844 24.92 -21.9 -7.5 59 -27.9 -18.2 0
16:03 1015 29.97 844 24.92 -22 -7.5 60 -27.8 -18 0
16:04 1015 29.97 844 24.92 -22 -7.5 60 -27.7 -17.9 0
16:05 1015 29.97 844 24.92 -21.9 -7.4 60 -27.7 -17.8 0
16:06 1015 29.97 844 24.92 -21.8 -7.3 60 -27.6 -17.7 0
16:07 1015 29.97 844 24.92 -21.8 -7.2 60 -27.5 -17.6 0
16:08 1015 29.97 844 24.92 -21.7 -7 60 -27.5 -17.4 0
16:09 1015 29.97 844 24.92 -21.5 -6.8 59 -27.5 -17.5 0
16:10 1015 29.97 844 24.92 -21.5 -6.7 59 -27.5 -17.6 0
16:11 1015 29.97 844 24.92 -21.6 -6.9 59 -27.6 -17.7 0
16:12 1015 29.97 844 24.92 -21.6 -7 59 -27.6 -17.7 0
16:13 1015 29.97 844 24.92 -21.7 -7.1 59 -27.6 -17.7 0
16:14 1015 29.97 844 24.92 -21.7 -7 59 -27.7 -17.8 0
16:15 1015 29.97 844 24.92 -21.7 -7 59 -27.7 -17.9 0
16:16 1015 29.97 844 24.92 -21.7 -7 59 -27.7 -17.9 0
16:17 1015 29.97 844 24.92 -21.8 -7.2 59 -27.7 -17.9 0
16:18 1015 29.97 844 24.92 -21.8 -7.2 60 -27.7 -17.8 0
16:19 1015 29.97 844 24.92 -21.8 -7.3 61 -27.5 -17.6 0
16:20 1015 29.97 844 24.92 -21.9 -7.4 60 -27.7 -17.8 0
16:21 1015 29.97 844 24.92 -21.9 -7.3 60 -27.7 -17.9 0
16:22 1015 29.97 844 24.92 -21.9 -7.4 60 -27.8 -18 0
16:23 1015 29.97 844 24.92 -21.9 -7.5 60 -27.8 -18 0
16:24 1015 29.97 844 24.92 -22.1 -7.7 60 -27.9 -18.2 0
16:25 1015 29.97 844 24.92 -22.3 -8.1 61 -27.9 -18.3 0
16:26 1015 29.97 844 24.92 -22.3 -8.2 61 -27.9 -18.2 0
16:27 1015 29.97 844 24.92 -22.4 -8.4 61 -28 -18.3 0
16:28 1015 29.97 844 24.92 -22.5 -8.4 62 -27.9 -18.3 0
16:29 1015 29.97 844 24.92 -22.5 -8.6 62 -27.9 -18.3 0
16:30 1015 29.97 844 24.92 -22.6 -8.7 62 -28 -18.3 0
16:31 1015 29.97 844 24.92 -22.7 -8.8 63 -27.9 -18.3 0
16:32 1015 29.97 844 24.92 -22.7 -8.9 63 -28 -18.4 0
16:33 1015 29.97 844 24.92 -22.8 -9 63 -28 -18.4 0
16:34 1015 29.97 844 24.92 -22.9 -9.1 63 -28.1 -18.5 0
16:35 1015 29.97 844 24.92 -23 -9.3 64 -28.1 -18.5 0
16:36 1015 29.97 844 24.92 -23 -9.4 64 -28.1 -18.5 0
16:37 1015 29.97 844 24.92 -23 -9.4 64 -28.1 -18.5 0
16:38 1015 29.97 844 24.92 -23 -9.5 64 -28.1 -18.5 0
16:39 1015 29.97 844 24.92 -23 -9.5 64 -28.1 -18.5 0
16:40 1015 29.97 844 24.92 -23.1 -9.5 64 -28.1 -18.5 0
16:41 1015 29.97 844 24.92 -23.1 -9.5 64 -28.1 -18.5 0
16:42 1015 29.97 844 24.92 -23.1 -9.6 65 -28.1 -18.5 0
16:43 1015 29.97 844 24.92 -23.1 -9.7 65 -28.1 -18.5 0
16:44 1015 29.97 844 24.92 -23.1 -9.6 65 -28.1 -18.5 0
16:45 1015 29.97 844 24.92 -23.2 -9.7 65 -28.1 -18.6 0
16:46 1015 29.97 844 24.92 -23.2 -9.7 65 -28.1 -18.6 0
16:47 1015 29.97 844 24.92 -23.2 -9.8 65 -28.1 -18.6 0
16:48 1015 29.97 844 24.92 -23.2 -9.8 65 -28.1 -18.6 0
16:49 1015 29.97 844 24.92 -23.2 -9.8 65 -28.1 -18.6 0
16:50 1015 29.97 844 24.92 -23.3 -9.9 65 -28.1 -18.7 0
16:51 1015 29.97 844 24.92 -23.3 -9.9 65 -28.1 -18.6 0
16:52 1015 29.97 844 24.92 -23.3 -9.9 65 -28.1 -18.5 0
16:53 1015 29.97 844 24.92 -23.3 -9.9 65 -28.1 -18.6 0
16:54 1015 29.97 844 24.92 -23.3 -9.9 65 -28.1 -18.6 0
16:55 1015 29.97 844 24.92 -23.3 -10 65 -28.1 -18.6 0
16:56 1015 29.97 844 24.92 -23.4 -10.1 65 -28.2 -18.7 0
16:57 1015 29.97 844 24.92 -23.4 -10.2 66 -28.2 -18.7 0
16:58 1015 29.97 844 24.92 -23.6 -10.4 66 -28.3 -18.9 0
16:59 1015 29.97 844 24.92 -23.7 -10.6 66 -28.4 -19.2 0
17:00 1015 29.97 844 24.92 -23.8 -10.9 66 -28.5 -19.2 0
17:01 1015 29.97 844 24.92 -23.9 -11 67 -28.4 -19.2 0
17:02 1015 29.97 844 24.92 -23.9 -11.1 67 -28.4 -19.1 0
17:03 1015 29.97 844 24.92 -24 -11.1 67 -28.5 -19.3 0
17:04 1014 29.94 844 24.92 -24.1 -11.4 67 -28.7 -19.6 0
17:05 1015 29.97 844 24.92 -24.2 -11.5 68 -28.5 -19.4 0
17:06 1015 29.97 844 24.92 -24.2 -11.5 69 -28.4 -19.1 0
17:07 1015 29.97 844 24.92 -24.1 -11.3 69 -28.3 -18.9 0
17:08 1015 29.97 844 24.92 -24 -11.3 69 -28.3 -18.9 0
17:09 1015 29.97 844 24.92 -24 -11.3 68 -28.3 -19 0
17:10 1015 29.97 844 24.92 -24 -11.2 68 -28.4 -19.1 0
17:11 1015 29.97 844 24.92 -24.1 -11.4 68 -28.5 -19.2 0
17:12 1015 29.97 844 24.92 -24.1 -11.4 68 -28.4 -19.1 0
17:13 1015 29.97 844 24.92 -24.1 -11.5 69 -28.3 -19 0
17:14 1015 29.97 844 24.92 -24.2 -11.5 69 -28.3 -19 0
17:15 1015 29.97 844 24.92 -24.2 -11.5 69 -28.3 -19 0
17:16 1014 29.94 844 24.92 -24.2 -11.5 69 -28.3 -19 0
17:17 1014 29.94 844 24.92 -24.2 -11.5 69 -28.3 -18.9 0
17:18 1014 29.94 844 24.92 -24.2 -11.5 70 -28.3 -18.9 0
17:19 1014 29.94 844 24.92 -24.2 -11.5 70 -28.2 -18.8 0
17:20 1014 29.94 844 24.92 -24.2 -11.5 70 -28.2 -18.8 0
17:21 1014 29.94 844 24.92 -24.2 -11.6 70 -28.2 -18.8 0
17:22 1014 29.94 844 24.92 -24.2 -11.5 70 -28.3 -18.9 0
17:23 1014 29.94 844 24.92 -24.2 -11.6 70 -28.3 -18.9 0
17:24 1014 29.94 844 24.92 -24.2 -11.6 70 -28.3 -18.9 0
17:25 1014 29.94 844 24.92 -24.3 -11.7 70 -28.3 -18.9 0
17:26 1014 29.94 844 24.92 -24.3 -11.7 70 -28.3 -18.9 0
17:27 1014 29.94 844 24.92 -24.2 -11.6 70 -28.2 -18.8 0
17:28 1014 29.94 844 24.92 -24.2 -11.6 70 -28.2 -18.8 0
17:29 1014 29.94 844 24.92 -24.2 -11.6 70 -28.3 -18.9 0
17:30 1014 29.94 844 24.92 -24.3 -11.7 70 -28.3 -19 0
17:31 1014 29.94 844 24.92 -24.2 -11.6 70 -28.3 -18.9 0
17:32 1014 29.94 844 24.92 -24.3 -11.7 69 -28.4 -19.1 0
17:33 1014 29.94 843 24.89 -24.3 -11.8 69 -28.5 -19.2 0
17:34 1014 29.94 843 24.89 -24.4 -11.9 70 -28.4 -19.1 0
17:35 1014 29.94 843 24.89 -24.4 -11.8 68 -28.7 -19.7 0
17:36 1014 29.94 843 24.89 -24.5 -12.1 70 -28.6 -19.4 0
17:37 1014 29.94 843 24.89 -24.6 -12.2 70 -28.6 -19.5 0
17:38 1014 29.94 843 24.89 -24.7 -12.5 67 -29.2 -20.5 0
17:39 1014 29.94 843 24.89 -25 -13 71 -28.8 -19.9 0
17:40 1014 29.94 843 24.89 -24.8 -12.7 73 -28.4 -19.1 0
17:41 1014 29.94 843 24.89 -24.6 -12.3 72 -28.3 -18.9 0
17:42 1014 29.94 843 24.89 -24.6 -12.2 66 -29.2 -20.5 0
17:43 1014 29.94 843 24.89 -25.2 -13.4 63 -30.3 -22.5 0
17:44 1014 29.94 843 24.89 -25.8 -14.4 67 -30.3 -22.6 0
17:45 1014 29.94 843 24.89 -26 -14.9 71 -29.9 -21.8 0
17:46 1014 29.94 843 24.89 -25.9 -14.6 75 -29.2 -20.5 0
17:47 1014 29.94 843 24.89 -25.7 -14.3 73 -29.2 -20.5 0
17:48 1014 29.94 843 24.89 -25.5 -14 73 -29.1 -20.3 0
17:49 1014 29.94 843 24.89 -25.3 -13.6 72 -28.9 -20.1 0
17:50 1014 29.94 843 24.89 -25.4 -13.7 70 -29.4 -20.9 0
17:51 1014 29.94 843 24.89 -25.6 -14.1 68 -29.9 -21.8 0
17:52 1014 29.94 843 24.89 -25.9 -14.7 69 -30 -22 0
17:53 1014 29.94 843 24.89 -26 -14.8 72 -29.7 -21.5 0
17:54 1014 29.94 843 24.89 -26.1 -15.1 70 -30.1 -22.1 0
17:55 1014 29.94 843 24.89 -26.3 -15.3 71 -30 -22 0
17:56 1014 29.94 843 24.89 -26.4 -15.5 71 -30.1 -22.2 0
17:57 1014 29.94 843 24.89 -26.4 -15.6 72 -30.1 -22.2 0
17:58 1014 29.94 843 24.89 -26.5 -15.8 72 -30.2 -22.3 0
17:59 1014 29.94 843 24.89 -26.6 -15.8 73 -30.1 -22.1 0
18:00 1014 29.94 843 24.89 -26.5 -15.7 75 -29.7 -21.5 0
18:01 1014 29.94 843 24.89 -26.3 -15.3 76 -29.4 -20.9 0
18:02 1014 29.94 843 24.89 -26.1 -14.9 75 -29.2 -20.6 0
18:03 1014 29.94 843 24.89 -26 -14.8 73 -29.5 -21.1 0
18:04 1014 29.94 843 24.89 -25.9 -14.7 75 -29.2 -20.6 0
18:05 1014 29.94 843 24.89 -25.8 -14.4 76 -28.8 -19.9 0
18:06 1014 29.94 843 24.89 -25.5 -13.9 76 -28.6 -19.4 0
18:07 1014 29.94 843 24.89 -25.3 -13.6 75 -28.6 -19.5 0
18:08 1014 29.94 843 24.89 -25.2 -13.4 74 -28.6 -19.5 0
18:09 1014 29.94 843 24.89 -25.2 -13.3 74 -28.5 -19.4 0
18:10 1014 29.94 843 24.89 -25.1 -13.2 73 -28.6 -19.5 0
18:11 1014 29.94 843 24.89 -25.2 -13.4 71 -29.1 -20.3 0
18:12 1014 29.94 843 24.89 -25.3 -13.5 72 -29 -20.1 0
18:13 1014 29.94 843 24.89 -25.3 -13.6 73 -28.9 -20 0
18:14 1014 29.94 843 24.89 -25.3 -13.5 74 -28.7 -19.6 0
18:15 1014 29.94 843 24.89 -25.2 -13.3 72 -28.8 -19.8 0
18:16 1014 29.94 843 24.89 -25.3 -13.5 72 -29 -20.2 0
18:17 1014 29.94 843 24.89 -25.4 -13.8 72 -29.1 -20.5 0
18:18 1014 29.94 843 24.89 -25.5 -13.9 72 -29.2 -20.5 0
18:19 1014 29.94 843 24.89 -25.6 -14 72 -29.2 -20.6 0
18:20 1014 29.94 843 24.89 -25.6 -14.1 72 -29.3 -20.7 0
18:21 1014 29.94 843 24.89 -25.8 -14.4 71 -29.6 -21.2 0
18:22 1014 29.94 843 24.89 -25.9 -14.6 73 -29.4 -20.9 0
18:23 1014 29.94 843 24.89 -25.8 -14.4 75 -29.1 -20.3 0
18:24 1014 29.94 843 24.89 -25.6 -14.1 75 -28.8 -19.8 0
18:25 1014 29.94 843 24.89 -25.4 -13.7 75 -28.6 -19.4 0
18:26 1014 29.94 843 24.89 -25.2 -13.4 74 -28.5 -19.3 0
18:27 1014 29.94 843 24.89 -25.4 -13.6 66 -29.9 -21.9 0
18:28 1014 29.94 843 24.89 -26 -14.7 71 -29.8 -21.7 0
18:29 1014 29.94 843 24.89 -25.9 -14.6 75 -29 -20.3 0
18:30 1014 29.94 843 24.89 -25.7 -14.2 76 -28.8 -19.8 0
18:31 1014 29.94 843 24.89 -25.5 -13.8 76 -28.6 -19.5 0
18:32 1014 29.94 843 24.89 -25.4 -13.6 75 -28.5 -19.4 0
18:33 1014 29.94 843 24.89 -25.3 -13.5 75 -28.5 -19.4 0
18:34 1014 29.94 843 24.89 -25.2 -13.3 74 -28.5 -19.3 0
18:35 1014 29.94 843 24.89 -25.2 -13.3 74 -28.6 -19.5 0
18:36 1014 29.94 843 24.89 -25.2 -13.3 74 -28.6 -19.5 0
18:37 1014 29.94 843 24.89 -25.2 -13.3 73 -28.8 -19.8 0
18:38 1014 29.94 843 24.89 -25.2 -13.4 73 -28.7 -19.7 0
18:39 1014 29.94 843 24.89 -25.2 -13.3 74 -28.5 -19.3 0
18:40 1014 29.94 843 24.89 -25.1 -13.1 74 -28.4 -19.1 0
18:41 1014 29.94 843 24.89 -25 -13 74 -28.5 -19.2 0
18:42 1014 29.94 843 24.89 -25 -13 72 -28.7 -19.7 0
18:43 1014 29.94 843 24.89 -25.2 -13.4 70 -29.2 -20.5 0
18:44 1014 29.94 843 24.89 -25.5 -13.9 72 -29.2 -20.6 0
18:45 1014 29.94 843 24.89 -25.6 -14.1 73 -29.2 -20.5 0
18:46 1014 29.94 843 24.89 -25.7 -14.2 73 -29.1 -20.4 0
18:47 1014 29.94 843 24.89 -25.7 -14.2 75 -28.9 -20 0
18:48 1014 29.94 843 24.89 -25.5 -13.9 75 -28.7 -19.6 0
18:49 1014 29.94 843 24.89 -25.5 -14 73 -29 -20.2 0
18:50 1014 29.94 843 24.89 -25.5 -13.8 75 -28.6 -19.5 0
18:51 1014 29.94 843 24.89 -25.3 -13.5 75 -28.5 -19.3 0
18:52 1014 29.94 843 24.89 -25.4 -13.7 70 -29.4 -21 0
18:53 1014 29.94 843 24.89 -25.7 -14.3 74 -29.1 -20.4 0
18:54 1014 29.94 843 24.89 -25.6 -14.1 76 -28.7 -19.6 0
18:55 1014 29.94 843 24.89 -25.5 -13.8 72 -29.1 -20.4 0
18:56 1014 29.94 843 24.89 -25.5 -14 75 -28.7 -19.7 0
18:57 1014 29.94 843 24.89 -25.4 -13.7 76 -28.5 -19.4 0
18:58 1014 29.94 843 24.89 -25.3 -13.5 75 -28.5 -19.3 0
18:59 1014 29.94 843 24.89 -25.2 -13.4 75 -28.5 -19.3 0
19:00 1014 29.94 843 24.89 -25.2 -13.3 74 -28.5 -19.3 0
19:01 1014 29.94 843 24.89 -25.2 -13.4 74 -28.6 -19.6 0
19:02 1014 29.94 843 24.89 -25.4 -13.7 72 -29 -20.2 0
19:03 1014 29.94 843 24.89 -25.5 -13.9 73 -29 -20.2 0
19:04 1014 29.94 843 24.89 -25.6 -14.1 73 -29.1 -20.4 0
19:05 1014 29.94 843 24.89 -25.7 -14.2 73 -29.2 -20.5 0
19:06 1014 29.94 843 24.89 -25.7 -14.3 75 -28.9 -20.1 0
19:07 1014 29.94 843 24.89 -25.7 -14.2 73 -29.2 -20.5 0
19:08 1014 29.94 843 24.89 -25.8 -14.4 74 -29.1 -20.4 0
19:09 1014 29.94 843 24.89 -25.7 -14.3 74 -29.1 -20.3 0
19:10 1014 29.94 843 24.89 -25.8 -14.4 73 -29.3 -20.7 0
19:11 1014 29.94 843 24.89 -25.9 -14.6 74 -29.3 -20.7 0
19:12 1014 29.94 843 24.89 -25.8 -14.4 76 -28.9 -20 0
19:13 1014 29.94 843 24.89 -25.6 -14.1 75 -28.8 -19.9 0
19:14 1014 29.94 843 24.89 -25.6 -14.2 73 -29.2 -20.6 0
19:15 1014 29.94 843 24.89 -25.8 -14.4 74 -29.2 -20.5 0
19:16 1014 29.94 843 24.89 -25.7 -14.3 75 -29 -20.2 0
19:17 1014 29.94 843 24.89 -25.7 -14.3 73 -29.1 -20.5 0
19:18 1014 29.94 843 24.89 -25.8 -14.5 73 -29.3 -20.7 0
19:19 1014 29.94 843 24.89 -25.8 -14.5 74 -29.1 -20.4 0
19:20 1014 29.94 843 24.89 -25.7 -14.3 76 -28.8 -19.9 0
19:21 1014 29.94 843 24.89 -25.6 -14 75 -28.7 -19.7 0
19:22 1014 29.94 843 24.89 -25.5 -13.9 75 -28.7 -19.6 0
19:23 1014 29.94 843 24.89 -25.4 -13.7 75 -28.7 -19.6 0
19:24 1014 29.94 843 24.89 -25.4 -13.8 73 -28.9 -20 0
19:25 1014 29.94 843 24.89 -25.6 -14 72 -29.2 -20.6 0
19:26 1014 29.94 843 24.89 -25.9 -14.7 70 -29.9 -21.7 0
19:27 1014 29.94 843 24.89 -26.3 -15.3 71 -30.1 -22.2 0
19:28 1014 29.94 843 24.89 -26.6 -15.9 73 -30.1 -22.1 0
19:29 1014 29.94 843 24.89 -26.7 -16 74 -30 -22 0
19:30 1014 29.94 843 24.89 -26.8 -16.2 75 -29.9 -21.8 0
19:31 1014 29.94 843 24.89 -26.6 -15.9 77 -29.6 -21.2 0
19:32 1014 29.94 843 24.89 -26.4 -15.6 77 -29.3 -20.8 0
19:33 1014 29.94 843 24.89 -26.3 -15.3 77 -29.2 -20.5 0
19:34 1014 29.94 843 24.89 -26.1 -15 77 -29 -20.2 0
19:35 1014 29.94 843 24.89 -25.9 -14.7 77 -28.8 -19.9 0
19:36 1014 29.94 843 24.89 -25.9 -14.5 76 -28.9 -20.1 0
19:37 1014 29.94 843 24.89 -25.8 -14.4 76 -28.8 -19.9 0
19:38 1014 29.94 843 24.89 -26 -14.8 69 -30.1 -22.2 0
19:39 1014 29.94 843 24.89 -26.7 -16.1 66 -31.3 -24.4 0
19:40 1014 29.94 843 24.89 -27.5 -17.4 68 -31.7 -25.1 0
19:41 1014 29.94 843 24.89 -27.8 -18.1 72 -31.5 -24.7 0
19:42 1014 29.94 843 24.89 -28 -18.4 74 -31.3 -24.3 0
19:43 1014 29.94 843 24.89 -27.8 -18.1 79 -30.5 -22.9 0
19:44 1014 29.94 843 24.89 -27.4 -17.4 81 -29.8 -21.7 0
19:45 1014 29.94 843 24.89 -27 -16.5 79 -29.5 -21.1 0
19:46 1014 29.94 843 24.89 -26.7 -16.1 78 -29.5 -21.1 0
19:47 1014 29.94 843 24.89 -26.6 -15.9 78 -29.4 -21 0
19:48 1014 29.94 843 24.89 -26.4 -15.5 77 -29.4 -20.9 0
19:49 1014 29.94 843 24.89 -26.4 -15.6 76 -29.4 -21 0
19:50 1014 29.94 843 24.89 -26.3 -15.3 77 -29.1 -20.4 0
19:51 1014 29.94 843 24.89 -26.1 -15 77 -29 -20.2 0
19:52 1014 29.94 843 24.89 -26.1 -15 76 -29.1 -20.4 0
19:53 1014 29.94 843 24.89 -26.1 -14.9 77 -29 -20.1 0
19:54 1014 29.94 843 24.89 -26.1 -14.9 77 -29 -20.2 0
19:55 1014 29.94 843 24.89 -25.9 -14.6 78 -28.6 -19.5 0
19:56 1014 29.94 843 24.89 -25.7 -14.2 78 -28.5 -19.2 0
19:57 1014 29.94 843 24.89 -25.5 -13.9 78 -28.3 -19 0
19:58 1014 29.94 843 24.89 -25.3 -13.6 77 -28.3 -18.9 0
19:59 1014 29.94 843 24.89 -25.2 -13.3 76 -28.2 -18.8 0
20:00 1014 29.94 843 24.89 -25.2 -13.3 73 -28.7 -19.7 0
20:01 1014 29.94 843 24.89 -25.6 -14 71 -29.4 -20.9 0
20:02 1014 29.94 843 24.89 -25.9 -14.6 69 -30 -22 0
20:03 1014 29.94 843 24.89 -26.6 -15.9 68 -30.9 -23.5 0
20:04 1014 29.94 843 24.89 -27.3 -17.1 68 -31.4 -24.6 0
20:05 1014 29.94 843 24.89 -27.8 -18 70 -31.7 -25 0
20:06 1014 29.94 843 24.89 -28 -18.3 74 -31.3 -24.3 0
20:07 1014 29.94 843 24.89 -28.1 -18.5 74 -31.4 -24.5 0
20:08 1014 29.94 843 24.89 -27.9 -18.2 80 -30.4 -22.7 0
20:09 1014 29.94 843 24.89 -27.2 -17 83 -29.3 -20.7 0
20:10 1014 29.94 843 24.89 -26.7 -16 81 -29 -20.2 0
20:11 1014 29.94 843 24.89 -27.2 -17 66 -31.8 -25.3 0
20:12 1014 29.94 843 24.89 -28.1 -18.5 70 -32 -25.7 0
20:13 1014 29.94 843 24.89 -28.6 -19.4 69 -32.6 -26.6 0
20:14 1014 29.94 843 24.89 -29.1 -20.3 69 -33.1 -27.5 0
20:15 1014 29.94 843 24.89 -29.4 -20.9 72 -32.9 -27.2 0
20:16 1014 29.94 843 24.89 -29.3 -20.8 76 -32.3 -26.2 0
20:17 1014 29.94 843 24.89 -29.3 -20.7 76 -32.3 -26.1 0
20:18 1014 29.94 843 24.89 -29.2 -20.5 78 -31.9 -25.5 0
20:19 1014 29.94 843 24.89 -29 -20.2 78 -31.7 -25 0
20:20 1014 29.94 843 24.89 -28.8 -19.8 79 -31.4 -24.5 0
20:21 1014 29.94 843 24.89 -28.7 -19.6 77 -31.5 -24.7 0
20:22 1014 29.94 843 24.89 -28.8 -19.8 75 -32 -25.5 0
20:23 1014 29.94 843 24.89 -28.9 -20.1 74 -32.2 -25.9 0
20:24 1014 29.94 843 24.89 -29 -20.3 76 -32 -25.7 0
20:25 1014 29.94 843 24.89 -28.9 -20.1 78 -31.6 -24.9 0
20:26 1014 29.94 843 24.89 -28.7 -19.6 79 -31.2 -24.2 0
20:27 1014 29.94 843 24.89 -28.5 -19.3 78 -31.2 -24.2 0
20:28 1014 29.94 843 24.89 -28.5 -19.3 76 -31.5 -24.8 0
20:29 1014 29.94 843 24.89 -28.5 -19.3 77 -31.4 -24.6 0
20:30 1014 29.94 843 24.89 -28.5 -19.3 75 -31.6 -24.9 0
20:31 1014 29.94 843 24.89 -28.7 -19.6 74 -32 -25.7 0
20:32 1014 29.94 843 24.89 -28.9 -20.1 72 -32.4 -26.4 0
20:33 1014 29.94 843 24.89 -29.2 -20.5 73 -32.6 -26.7 0
20:34 1014 29.94 843 24.89 -29.4 -21 72 -33.1 -27.5 0
20:35 1014 29.94 843 24.89 -29.7 -21.4 73 -33.1 -27.6 0
20:36 1014 29.94 843 24.89 -29.7 -21.4 74 -32.9 -27.2 0
20:37 1014 29.94 843 24.89 -29.8 -21.6 74 -33 -27.5 0
20:38 1014 29.94 843 24.89 -29.8 -21.7 75 -33 -27.4 0
20:39 1014 29.94 843 24.89 -29.8 -21.7 76 -32.8 -27.1 0
20:40 1014 29.94 843 24.89 -29.8 -21.6 76 -32.8 -27 0
20:41 1014 29.94 843 24.89 -29.7 -21.5 76 -32.8 -27 0
20:42 1014 29.94 843 24.89 -29.7 -21.5 76 -32.6 -26.7 0
20:43 1014 29.94 843 24.89 -29.6 -21.2 77 -32.4 -26.3 0
20:44 1014 29.94 843 24.89 -29.3 -20.8 78 -32 -25.7 0
20:45 1014 29.94 843 24.89 -29.1 -20.4 78 -31.9 -25.4 0
20:46 1014 29.94 843 24.89 -29 -20.2 77 -31.8 -25.3 0
20:47 1014 29.94 843 24.89 -29 -20.1 75 -32.1 -25.7 0
20:48 1014 29.94 843 24.89 -29.1 -20.4 74 -32.4 -26.3 0
20:49 1014 29.94 843 24.89 -29.3 -20.7 73 -32.7 -26.8 0
20:50 1014 29.94 843 24.89 -29.5 -21 73 -32.9 -27.2 0
20:51 1014 29.94 843 24.89 -29.6 -21.3 72 -33.1 -27.6 0
20:52 1014 29.94 843 24.89 -29.9 -21.8 71 -33.5 -28.4 0
20:53 1014 29.94 843 24.89 -30.1 -22.1 73 -33.5 -28.2 0
20:54 1014 29.94 843 24.89 -30.1 -22.1 75 -33.1 -27.6 0
20:55 1014 29.94 843 24.89 -29.9 -21.9 76 -32.9 -27.2 0
20:56 1014 29.94 843 24.89 -29.9 -21.7 76 -32.8 -27 0
20:57 1014 29.94 843 24.89 -29.7 -21.4 77 -32.5 -26.6 0
20:58 1014 29.94 843 24.89 -29.6 -21.3 76 -32.6 -26.6 0
20:59 1014 29.94 843 24.89 -29.5 -21.1 77 -32.4 -26.3 0
21:00 1014 29.94 843 24.89 -29.3 -20.8 78 -32 -25.7 0
21:01 1014 29.94 843 24.89 -29.1 -20.5 76 -32.1 -25.8 0
21:02 1014 29.94 843 24.89 -29.1 -20.5 76 -32.2 -25.9 0
21:03 1014 29.94 843 24.89 -29.1 -20.4 77 -32 -25.6 0
21:04 1014 29.94 843 24.89 -28.9 -20.1 78 -31.7 -25.1 0
21:05 1014 29.94 843 24.89 -28.8 -19.8 76 -31.7 -25.1 0
21:06 1014 29.94 843 24.89 -28.6 -19.4 79 -31.2 -24.1 0
21:07 1014 29.94 843 24.89 -28.2 -18.8 80 -30.7 -23.3 0
21:08 1014 29.94 843 24.89 -27.9 -18.2 79 -30.5 -22.9 0
21:09 1014 29.94 843 24.89 -27.6 -17.8 78 -30.4 -22.6 0
21:10 1014 29.94 843 24.89 -27.6 -17.6 76 -30.6 -23 0
21:11 1014 29.94 843 24.89 -27.6 -17.7 76 -30.7 -23.2 0
21:12 1014 29.94 843 24.89 -27.7 -17.8 75 -30.9 -23.6 0
21:13 1014 29.94 843 24.89 -27.9 -18.2 74 -31.1 -24.1 0
21:14 1014 29.94 843 24.89 -28 -18.3 75 -31.1 -24 0
21:15 1014 29.94 843 24.89 -28 -18.3 77 -30.9 -23.6 0
21:16 1014 29.94 843 24.89 -27.9 -18.2 76 -30.9 -23.6 0
21:17 1014 29.94 843 24.89 -28 -18.3 75 -31.2 -24.1 0
21:18 1014 29.94 843 24.89 -28.1 -18.5 75 -31.3 -24.3 0
21:19 1014 29.94 843 24.89 -28.2 -18.7 75 -31.3 -24.4 0
21:20 1014 29.94 843 24.89 -28.2 -18.8 75 -31.4 -24.5 0
21:21 1014 29.94 843 24.89 -28.3 -18.9 75 -31.4 -24.4 0
21:22 1014 29.94 843 24.89 -28.2 -18.7 77 -31.1 -23.9 0
21:23 1014 29.94 843 24.89 -28.1 -18.7 75 -31.3 -24.3 0
21:24 1014 29.94 843 24.89 -28.3 -19 72 -31.9 -25.4 0
21:25 1014 29.94 843 24.89 -28.7 -19.6 71 -32.4 -26.3 0
21:26 1014 29.94 843 24.89 -29 -20.2 72 -32.6 -26.7 0
21:27 1014 29.94 843 24.89 -29.1 -20.5 73 -32.5 -26.5 0
21:28 1014 29.94 843 24.89 -29.2 -20.6 74 -32.4 -26.4 0
21:29 1014 29.94 843 24.89 -29.3 -20.7 74 -32.5 -26.4 0
21:30 1014 29.94 843 24.89 -29.2 -20.6 76 -32.3 -26.1 0
21:31 1014 29.94 843 24.89 -29.2 -20.5 76 -32.1 -25.8 0
21:32 1014 29.94 843 24.89 -29.1 -20.3 77 -31.9 -25.4 0
21:33 1014 29.94 843 24.89 -28.9 -20 77 -31.7 -25.1 0
21:34 1014 29.94 843 24.89 -28.8 -19.8 77 -31.7 -25 0
21:35 1014 29.94 843 24.89 -28.7 -19.7 76 -31.7 -25 0
21:36 1014 29.94 843 24.89 -28.6 -19.4 78 -31.4 -24.4 0
21:37 1014 29.94 843 24.89 -28.4 -19.1 78 -31.2 -24.1 0
21:38 1014 29.94 843 24.89 -28.3 -18.9 76 -31.2 -24.2 0
21:39 1014 29.94 843 24.89 -28.2 -18.8 77 -31.1 -23.9 0
21:40 1014 29.94 843 24.89 -28.2 -18.7 76 -31.2 -24.2 0
21:41 1014 29.94 843 24.89 -28.3 -18.9 75 -31.4 -24.6 0
21:42 1014 29.94 843 24.89 -28.4 -19.1 76 -31.4 -24.6 0
21:43 1014 29.94 843 24.89 -28.4 -19 76 -31.3 -24.3 0
21:44 1014 29.94 843 24.89 -28.4 -19.1 75 -31.6 -24.8 0
21:45 1014 29.94 843 24.89 -28.5 -19.3 76 -31.5 -24.7 0
21:46 1014 29.94 843 24.89 -28.3 -19 79 -31 -23.8 0
21:47 1014 29.94 843 24.89 -28.2 -18.7 78 -30.9 -23.7 0
21:48 1014 29.94 843 24.89 -28.2 -18.7 75 -31.4 -24.5 0
21:49 1014 29.94 843 24.89 -28.5 -19.3 72 -32.1 -25.7 0
21:50 1014 29.94 843 24.89 -28.7 -19.7 75 -31.9 -25.5 0
21:51 1014 29.94 843 24.89 -28.9 -20 74 -32.2 -25.9 0
21:52 1014 29.94 843 24.89 -29 -20.1 75 -32.1 -25.8 0
21:53 1014 29.94 843 24.89 -29.1 -20.4 74 -32.3 -26.2 0
21:54 1014 29.94 843 24.89 -29.2 -20.6 73 -32.6 -26.7 0
21:55 1014 29.94 843 24.89 -29.4 -20.9 74 -32.6 -26.7 0
21:56 1014 29.94 843 24.89 -29.4 -20.9 76 -32.4 -26.3 0
21:57 1014 29.94 843 24.89 -29.3 -20.7 76 -32.2 -26 0
21:58 1014 29.94 843 24.89 -29.2 -20.6 77 -32.1 -25.7 0
21:59 1013 29.91 843 24.89 -29.2 -20.5 76 -32.1 -25.9 0
22:00 1013 29.91 843 24.89 -29.3 -20.7 74 -32.6 -26.7 0
22:01 1013 29.91 843 24.89 -29.5 -21.1 73 -32.9 -27.2 0
22:02 1013 29.91 843 24.89 -29.6 -21.3 74 -32.9 -27.2 0
22:03 1013 29.91 843 24.89 -29.8 -21.6 73 -33.1 -27.6 0
22:04 1013 29.91 843 24.89 -29.8 -21.6 75 -32.8 -27 0
22:05 1013 29.91 842 24.86 -29.7 -21.5 76 -32.7 -26.8 0
22:06 1013 29.91 842 24.86 -29.6 -21.2 77 -32.4 -26.3 0
22:07 1013 29.91 842 24.86 -29.3 -20.8 78 -32.1 -25.7 0
22:08 1013 29.91 842 24.86 -29.2 -20.5 77 -32 -25.6 0
22:09 1013 29.91 842 24.86 -29.1 -20.3 76 -32 -25.6 0
22:10 1013 29.91 842 24.86 -28.9 -20.1 77 -31.7 -25.1 0
22:11 1013 29.91 842 24.86 -28.9 -20 75 -32 -25.6 0
22:12 1013 29.91 842 24.86 -29 -20.1 75 -32.2 -25.9 0
22:13 1013 29.91 842 24.86 -28.9 -20.1 76 -31.9 -25.5 0
22:14 1013 29.91 842 24.86 -28.8 -19.9 77 -31.7 -25.1 0
22:15 1013 29.91 842 24.86 -28.7 -19.6 77 -31.5 -24.8 0
22:16 1013 29.91 842 24.86 -28.6 -19.4 77 -31.5 -24.7 0
22:17 1013 29.91 842 24.86 -28.4 -19.1 78 -31.1 -24.1 0
22:18 1013 29.91 842 24.86 -28.2 -18.7 77 -31 -23.9 0
22:19 1013 29.91 842 24.86 -28 -18.4 77 -30.9 -23.6 0
22:20 1013 29.91 842 24.86 -27.9 -18.2 76 -30.9 -23.5 0
22:21 1013 29.91 842 24.86 -27.8 -18 76 -30.8 -23.5 0
22:22 1013 29.91 842 24.86 -27.7 -17.8 76 -30.6 -23.1 0
22:23 1013 29.91 842 24.86 -27.5 -17.5 76 -30.5 -22.9 0
22:24 1013 29.91 842 24.86 -27.4 -17.3 76 -30.4 -22.7 0
22:25 1013 29.91 842 24.86 -27.3 -17.1 75 -30.5 -22.8 0
22:26 1013 29.91 842 24.86 -27.3 -17.1 74 -30.7 -23.2 0
22:27 1013 29.91 842 24.86 -27.4 -17.2 74 -30.7 -23.3 0
22:28 1013 29.91 842 24.86 -27.4 -17.3 74 -30.6 -23.2 0
22:29 1013 29.91 842 24.86 -27.4 -17.3 74 -30.7 -23.3 0
22:30 1013 29.91 842 24.86 -27.4 -17.3 74 -30.8 -23.4 0
22:31 1013 29.91 842 24.86 -27.5 -17.4 74 -30.8 -23.4 0
22:32 1013 29.91 842 24.86 -27.5 -17.5 74 -30.9 -23.6 0
22:33 1013 29.91 842 24.86 -27.4 -17.3 75 -30.5 -22.9 0
22:34 1013 29.91 842 24.86 -27.3 -17.2 74 -30.7 -23.3 0
22:35 1013 29.91 842 24.86 -27.4 -17.3 74 -30.7 -23.3 0
22:36 1013 29.91 842 24.86 -27.3 -17.2 74 -30.7 -23.3 0
22:37 1013 29.91 842 24.86 -27.4 -17.2 73 -30.9 -23.6 0
22:38 1013 29.91 842 24.86 -27.5 -17.4 73 -30.9 -23.6 0
22:39 1013 29.91 842 24.86 -27.4 -17.3 74 -30.7 -23.3 0
22:40 1013 29.91 842 24.86 -27.4 -17.3 74 -30.7 -23.2 0
22:41 1013 29.91 842 24.86 -27.3 -17.2 75 -30.5 -22.9 0
22:42 1013 29.91 842 24.86 -27.2 -16.9 76 -30.2 -22.4 0
22:43 1013 29.91 842 24.86 -27.1 -16.8 75 -30.3 -22.5 0
22:44 1013 29.91 842 24.86 -27 -16.6 75 -30.2 -22.3 0
22:45 1013 29.91 842 24.86 -26.9 -16.5 74 -30.3 -22.5 0
22:46 1013 29.91 842 24.86 -27 -16.6 72 -30.7 -23.2 0
22:47 1013 29.91 842 24.86 -27.1 -16.8 74 -30.5 -22.9 0
22:48 1013 29.91 842 24.86 -27.1 -16.8 74 -30.4 -22.7 0
22:49 1013 29.91 842 24.86 -27.1 -16.7 75 -30.3 -22.5 0
22:50 1013 29.91 842 24.86 -27 -16.7 74 -30.3 -22.6 0
22:51 1013 29.91 842 24.86 -27 -16.6 77 -29.9 -21.9 0
22:52 1013 29.91 842 24.86 -26.7 -16.1 77 -29.6 -21.3 0
22:53 1013 29.91 842 24.86 -26.5 -15.7 77 -29.4 -21 0
22:54 1013 29.91 842 24.86 -26.3 -15.3 76 -29.3 -20.7 0
22:55 1013 29.91 842 24.86 -26.2 -15.2 74 -29.5 -21.1 0
22:56 1013 29.91 842 24.86 -26.3 -15.3 72 -30 -21.9 0
22:57 1013 29.91 842 24.86 -26.6 -15.8 71 -30.3 -22.6 0
22:58 1013 29.91 842 24.86 -26.9 -16.4 69 -30.9 -23.7 0
22:59 1013 29.91 842 24.86 -27.4 -17.3 69 -31.4 -24.6 0
23:00 1013 29.91 842 24.86 -27.6 -17.6 73 -31 -23.7 0
23:01 1013 29.91 842 24.86 -27.6 -17.6 74 -30.9 -23.5 0
23:02 1013 29.91 842 24.86 -27.6 -17.7 73 -31.1 -24 0
23:03 1013 29.91 842 24.86 -27.8 -18 73 -31.2 -24.1 0
23:04 1013 29.91 842 24.86 -27.8 -18 74 -31.1 -24 0
23:05 1013 29.91 842 24.86 -27.9 -18.2 72 -31.6 -24.8 0
23:06 1013 29.91 842 24.86 -28.2 -18.7 71 -31.9 -25.3 0
23:07 1013 29.91 842 24.86 -28.4 -19 72 -31.9 -25.5 0
23:08 1013 29.91 842 24.86 -28.5 -19.2 73 -31.9 -25.4 0
23:09 1013 29.91 842 24.86 -28.6 -19.4 72 -32.1 -25.8 0
23:10 1013 29.91 842 24.86 -28.7 -19.7 73 -32.2 -26 0
23:11 1013 29.91 842 24.86 -28.8 -19.9 74 -32.2 -25.9 0
23:12 1013 29.91 842 24.86 -28.8 -19.8 75 -31.9 -25.5 0
23:13 1013 29.91 842 24.86 -28.8 -19.8 75 -32 -25.6 0
23:14 1013 29.91 842 24.86 -28.7 -19.7 76 -31.7 -25.1 0
23:15 1013 29.91 842 24.86 -28.6 -19.5 74 -31.8 -25.3 0
23:16 1013 29.91 842 24.86 -28.7 -19.7 74 -32 -25.7 0
23:17 1013 29.91 842 24.86 -28.7 -19.7 76 -31.8 -25.2 0
23:18 1013 29.91 842 24.86 -28.6 -19.4 78 -31.3 -24.4 0
23:19 1013 29.91 842 24.86 -28.4 -19 76 -31.4 -24.4 0
23:20 1013 29.91 842 24.86 -28.2 -18.8 77 -31 -23.9 0
23:21 1013 29.91 842 24.86 -28.1 -18.5 77 -31 -23.8 0
23:22 1013 29.91 842 24.86 -27.9 -18.2 78 -30.6 -23.1 0
23:23 1013 29.91 842 24.86 -27.7 -17.9 77 -30.6 -23 0
23:24 1013 29.91 842 24.86 -27.7 -17.9 74 -31 -23.9 0
23:25 1013 29.91 842 24.86 -27.9 -18.2 75 -31 -23.8 0
23:26 1013 29.91 842 24.86 -27.8 -18 78 -30.5 -22.8 0
23:27 1013 29.91 842 24.86 -27.3 -17.2 81 -29.7 -21.4 0
23:28 1013 29.91 842 24.86 -27 -16.6 76 -30 -22 0
23:29 1013 29.91 842 24.86 -27.2 -17 74 -30.6 -23 0
23:30 1013 29.91 842 24.86 -27.4 -17.2 74 -30.7 -23.2 0
23:31 1013 29.91 842 24.86 -27.5 -17.4 75 -30.6 -23.1 0
23:32 1013 29.91 842 24.86 -27.6 -17.8 73 -31.1 -23.9 0
23:33 1013 29.91 842 24.86 -27.8 -18.1 74 -31.2 -24.1 0
23:34 1013 29.91 842 24.86 -27.9 -18.2 75 -31.1 -24 0
23:35 1013 29.91 842 24.86 -28 -18.3 74 -31.2 -24.2 0
23:36 1013 29.91 842 24.86 -28.1 -18.6 73 -31.5 -24.7 0
23:37 1013 29.91 842 24.86 -28.3 -18.9 73 -31.7 -25 0
23:38 1013 29.91 842 24.86 -28.3 -18.9 77 -31.2 -24.1 0
23:39 1013 29.91 842 24.86 -28.2 -18.7 76 -31.3 -24.3 0
23:40 1013 29.91 842 24.86 -28.1 -18.6 77 -31 -23.7 0
23:41 1013 29.91 842 24.86 -28 -18.5 76 -31 -23.8 0
23:42 1013 29.91 842 24.86 -28 -18.4 76 -31.1 -23.9 0
23:43 1013 29.91 842 24.86 -28.1 -18.5 75 -31.2 -24.2 0
23:44 1013 29.91 842 24.86 -28.1 -18.6 76 -31.1 -23.9 0
23:45 1013 29.91 842 24.86 -28.1 -18.7 74 -31.4 -24.5 0
23:46 1013 29.91 842 24.86 -28.3 -18.9 75 -31.4 -24.5 0
23:47 1013 29.91 842 24.86 -28.3 -18.9 75 -31.4 -24.5 0
23:48 1013 29.91 842 24.86 -28.3 -18.9 76 -31.3 -24.3 0
23:49 1013 29.91 842 24.86 -28.1 -18.7 79 -30.8 -23.4 0
23:50 1013 29.91 842 24.86 -27.7 -17.9 82 -29.9 -21.9 0
23:51 1013 29.91 842 24.86 -27.2 -17 83 -29.3 -20.8 0
23:52 1013 29.91 842 24.86 -26.9 -16.4 80 -29.4 -20.9 0
23:53 1013 29.91 842 24.86 -26.8 -16.3 78 -29.5 -21.2 0
23:54 1013 29.91 842 24.86 -26.9 -16.3 75 -30 -22 0
23:55 1013 29.91 842 24.86 -27 -16.6 77 -30 -21.9 0
23:56 1013 29.91 842 24.86 -27 -16.6 77 -29.9 -21.7 0
23:57 1013 29.91 842 24.86 -27.2 -16.9 75 -30.4 -22.7 0
23:58 1013 29.91 842 24.86 -27.3 -17.1 76 -30.3 -22.6 0
23:59 1013 29.91 842 24.86 -27.3 -17.2 77 -30.3 -22.5 0
24:00 1013 29.91 842 24.86 -27.3 -17.2 76 -30.4 -22.7 0